Observation data for Boys Ranch on 02/15/2018      Previous  Date  Next       Current Mesonet Observations  Soil Data  Daily Summary Page  Observations in Plain Language
KBY1 150600Z 24010KT 17/M01 A2995 RMK A01 T01711007  RH  030%=      5-min Rain = 0
KBY1 150601Z 24011KT 17/M01 A2995 RMK A01 T01711005  RH  030%=      5-min Rain = 0
KBY1 150602Z 24012G17KT 17/M01 A2994 RMK A01 T01711005  RH  030%=      5-min Rain = 0
KBY1 150603Z 24010KT 17/M00 A2995 RMK A01 T01721003  RH  030%=      5-min Rain = 0
KBY1 150604Z 24010KT 17/M00 A2994 RMK A01 T01721004  RH  030%=      5-min Rain = 0
KBY1 150605Z 25012KT 17/M00 A2994 RMK A01 T01721003  RH  030%=      5-min Rain = 0
KBY1 150606Z 24011KT 17/M00 A2994 RMK A01 T01731002  RH  031%=      5-min Rain = 0
KBY1 150607Z 24012KT 17/M00 A2994 RMK A01 T01741002  RH  031%=      5-min Rain = 0
KBY1 150608Z 25012KT 17/M00 A2994 RMK A01 T01741001  RH  031%=      5-min Rain = 0
KBY1 150609Z 24012G17KT 17/00 A2994 RMK A01 T017400-0  RH  031%=      5-min Rain = 0
KBY1 150610Z 24011KT 18/00 A2994 RMK A01 T01750001  RH  031%=      5-min Rain = 0
KBY1 150611Z 24010KT 17/00 A2994 RMK A01 T01740001  RH  031%=      5-min Rain = 0
KBY1 150612Z 25012KT 17/00 A2994 RMK A01 T01740003  RH  031%=      5-min Rain = 0
KBY1 150613Z 24013KT 17/00 A2994 RMK A01 T01740004  RH  032%=      5-min Rain = 0
KBY1 150614Z 24011KT 17/01 A2994 RMK A01 T01740005  RH  032%=      5-min Rain = 0
KBY1 150615Z 24012KT 17/01 A2994 RMK A01 T01740006  RH  032%=      5-min Rain = 0
KBY1 150616Z 23011KT 17/01 A2994 RMK A01 T01740007  RH  032%=      5-min Rain = 0
KBY1 150617Z 24013KT 17/01 A2994 RMK A01 T01740007  RH  033%=      5-min Rain = 0
KBY1 150618Z 24013KT 17/01 A2994 RMK A01 T01730009  RH  033%=      5-min Rain = 0
KBY1 150619Z 24011KT 17/01 A2994 RMK A01 T01730009  RH  033%=      5-min Rain = 0
KBY1 150620Z 24012G17KT 17/01 A2994 RMK A01 T01730010  RH  033%=      5-min Rain = 0
KBY1 150621Z 24012KT 17/01 A2994 RMK A01 T01720011  RH  034%=      5-min Rain = 0
KBY1 150622Z 24011KT 17/01 A2994 RMK A01 T01720011  RH  034%=      5-min Rain = 0
KBY1 150623Z 24010KT 17/01 A2994 RMK A01 T01720011  RH  034%=      5-min Rain = 0
KBY1 150624Z 25011KT 17/01 A2994 RMK A01 T01720012  RH  034%=      5-min Rain = 0
KBY1 150625Z 24013KT 17/01 A2994 RMK A01 T01710013  RH  034%=      5-min Rain = 0
KBY1 150626Z 24010KT 17/01 A2994 RMK A01 T01710014  RH  035%=      5-min Rain = 0
KBY1 150627Z 25011KT 17/01 A2994 RMK A01 T01720014  RH  035%=      5-min Rain = 0
KBY1 150628Z 24011KT 17/02 A2994 RMK A01 T01720015  RH  035%=      5-min Rain = 0
KBY1 150629Z 25010KT 17/02 A2994 RMK A01 T01710015  RH  035%=      5-min Rain = 0
KBY1 150630Z 25011KT 17/02 A2994 RMK A01 T01710015  RH  035%=      5-min Rain = 0
KBY1 150631Z 24010KT 17/02 A2994 RMK A01 T01710016  RH  035%=      5-min Rain = 0
KBY1 150632Z 25011KT 17/02 A2994 RMK A01 T01710016  RH  035%=      5-min Rain = 0
KBY1 150633Z 24009KT 17/02 A2994 RMK A01 T01720016  RH  035%=      5-min Rain = 0
KBY1 150634Z 25010KT 17/02 A2994 RMK A01 T01720016  RH  035%=      5-min Rain = 0
KBY1 150635Z 24011KT 17/02 A2994 RMK A01 T01720017  RH  035%=      5-min Rain = 0
KBY1 150636Z 24011KT 17/02 A2994 RMK A01 T01720017  RH  035%=      5-min Rain = 0
KBY1 150637Z 24010KT 17/02 A2994 RMK A01 T01720017  RH  035%=      5-min Rain = 0
KBY1 150638Z 24008KT 17/02 A2994 RMK A01 T01720017  RH  035%=      5-min Rain = 0
KBY1 150639Z 24008KT 17/02 A2994 RMK A01 T01710017  RH  035%=      5-min Rain = 0
KBY1 150640Z 24009KT 17/02 A2994 RMK A01 T01700017  RH  036%=      5-min Rain = 0
KBY1 150641Z 24008KT 17/02 A2994 RMK A01 T01690017  RH  036%=      5-min Rain = 0
KBY1 150642Z 24008KT 17/02 A2994 RMK A01 T01680017  RH  036%=      5-min Rain = 0
KBY1 150643Z 24008KT 17/02 A2994 RMK A01 T01680017  RH  036%=      5-min Rain = 0
KBY1 150644Z 24006KT 17/02 A2994 RMK A01 T01680017  RH  036%=      5-min Rain = 0
KBY1 150645Z 25008KT 17/02 A2994 RMK A01 T01670017  RH  036%=      5-min Rain = 0
KBY1 150646Z 25007KT 17/02 A2994 RMK A01 T01660017  RH  036%=      5-min Rain = 0
KBY1 150647Z 24008KT 17/02 A2994 RMK A01 T01660017  RH  037%=      5-min Rain = 0
KBY1 150648Z 24009KT 17/02 A2994 RMK A01 T01660017  RH  037%=      5-min Rain = 0
KBY1 150649Z 25007KT 17/02 A2994 RMK A01 T01670017  RH  037%=      5-min Rain = 0
KBY1 150650Z 25007KT 17/02 A2994 RMK A01 T01670018  RH  037%=      5-min Rain = 0
KBY1 150651Z 25007KT 17/02 A2994 RMK A01 T01660018  RH  037%=      5-min Rain = 0
KBY1 150652Z 25007KT 17/02 A2994 RMK A01 T01660017  RH  037%=      5-min Rain = 0
KBY1 150653Z 25009KT 17/02 A2994 RMK A01 T01660017  RH  037%=      5-min Rain = 0
KBY1 150654Z 26009KT 17/02 A2994 RMK A01 T01660017  RH  036%=      5-min Rain = 0
KBY1 150655Z 25008KT 17/02 A2994 RMK A01 T01670017  RH  036%=      5-min Rain = 0
KBY1 150656Z 25009KT 17/02 A2994 RMK A01 T01670017  RH  036%=      5-min Rain = 0
KBY1 150657Z 25010KT 17/02 A2994 RMK A01 T01670016  RH  036%=      5-min Rain = 0
KBY1 150658Z 25010KT 17/02 A2994 RMK A01 T01670016  RH  036%=      5-min Rain = 0
KBY1 150659Z 25009KT 17/02 A2994 RMK A01 T01670016  RH  036%=      5-min Rain = 0
KBY1 150700Z 25010KT 17/02 A2994 RMK A01 T01670016  RH  036%=      5-min Rain = 0
KBY1 150701Z 25008KT 17/02 A2994 RMK A01 T01680016  RH  036%=      5-min Rain = 0
KBY1 150702Z 25008KT 17/02 A2994 RMK A01 T01670016  RH  036%=      5-min Rain = 0
KBY1 150703Z 25009KT 17/02 A2994 RMK A01 T01660016  RH  036%=      5-min Rain = 0
KBY1 150704Z 24009KT 17/02 A2994 RMK A01 T01650016  RH  036%=      5-min Rain = 0
KBY1 150705Z 25007KT 17/02 A2995 RMK A01 T01650015  RH  036%=      5-min Rain = 0
KBY1 150706Z 25008KT 17/01 A2995 RMK A01 T01650014  RH  036%=      5-min Rain = 0
KBY1 150707Z 26010KT 17/01 A2995 RMK A01 T01650014  RH  036%=      5-min Rain = 0
KBY1 150708Z 25008KT 17/01 A2995 RMK A01 T01650013  RH  036%=      5-min Rain = 0
KBY1 150709Z 25009KT 16/01 A2995 RMK A01 T01640013  RH  036%=      5-min Rain = 0
KBY1 150710Z 25008KT 16/01 A2995 RMK A01 T01640013  RH  036%=      5-min Rain = 0
KBY1 150711Z 25008KT 16/01 A2995 RMK A01 T01630013  RH  036%=      5-min Rain = 0
KBY1 150712Z 25008KT 16/01 A2995 RMK A01 T01630012  RH  036%=      5-min Rain = 0
KBY1 150713Z 25007KT 16/01 A2995 RMK A01 T01630012  RH  036%=      5-min Rain = 0
KBY1 150714Z 25006KT 16/01 A2995 RMK A01 T01620012  RH  036%=      5-min Rain = 0
KBY1 150715Z 25006KT 16/01 A2995 RMK A01 T01610013  RH  036%=      5-min Rain = 0
KBY1 150716Z 25008KT 16/01 A2995 RMK A01 T01610012  RH  036%=      5-min Rain = 0
KBY1 150717Z 25008KT 16/01 A2995 RMK A01 T01600012  RH  036%=      5-min Rain = 0
KBY1 150718Z 25007KT 16/01 A2995 RMK A01 T01610012  RH  036%=      5-min Rain = 0
KBY1 150719Z 25007KT 16/01 A2995 RMK A01 T01600012  RH  037%=      5-min Rain = 0
KBY1 150720Z 25008KT 16/01 A2995 RMK A01 T01600012  RH  037%=      5-min Rain = 0
KBY1 150721Z 25008KT 16/01 A2995 RMK A01 T01600012  RH  037%=      5-min Rain = 0
KBY1 150722Z 25008KT 16/01 A2995 RMK A01 T01600011  RH  037%=      5-min Rain = 0
KBY1 150723Z 25008KT 16/01 A2995 RMK A01 T01590011  RH  037%=      5-min Rain = 0
KBY1 150724Z 25009KT 16/01 A2995 RMK A01 T01590011  RH  037%=      5-min Rain = 0
KBY1 150725Z 26007KT 16/01 A2995 RMK A01 T01590011  RH  037%=      5-min Rain = 0
KBY1 150726Z 26008KT 16/01 A2995 RMK A01 T01580010  RH  037%=      5-min Rain = 0
KBY1 150727Z 25008KT 16/01 A2995 RMK A01 T01580010  RH  037%=      5-min Rain = 0
KBY1 150728Z 25007KT 16/01 A2995 RMK A01 T01580011  RH  037%=      5-min Rain = 0
KBY1 150729Z 25008KT 16/01 A2995 RMK A01 T01570011  RH  037%=      5-min Rain = 0
KBY1 150730Z 25008KT 16/01 A2995 RMK A01 T01570012  RH  037%=      5-min Rain = 0
KBY1 150731Z 25007KT 16/01 A2995 RMK A01 T01570012  RH  037%=      5-min Rain = 0
KBY1 150732Z 25007KT 16/01 A2995 RMK A01 T01570012  RH  037%=      5-min Rain = 0
KBY1 150733Z 26008KT 16/01 A2995 RMK A01 T01570011  RH  037%=      5-min Rain = 0
KBY1 150734Z 26007KT 16/01 A2995 RMK A01 T01560011  RH  037%=      5-min Rain = 0
KBY1 150735Z 26007KT 16/01 A2995 RMK A01 T01560010  RH  037%=      5-min Rain = 0
KBY1 150736Z 26008KT 16/01 A2995 RMK A01 T01550010  RH  037%=      5-min Rain = 0
KBY1 150737Z 26008KT 16/01 A2995 RMK A01 T01550010  RH  037%=      5-min Rain = 0
KBY1 150738Z 26006KT 16/01 A2995 RMK A01 T01550010  RH  037%=      5-min Rain = 0
KBY1 150739Z 26006KT 16/01 A2995 RMK A01 T01550010  RH  037%=      5-min Rain = 0
KBY1 150740Z 26007KT 15/01 A2995 RMK A01 T01540011  RH  038%=      5-min Rain = 0
KBY1 150741Z 26007KT 15/01 A2995 RMK A01 T01530011  RH  038%=      5-min Rain = 0
KBY1 150742Z 26006KT 15/01 A2995 RMK A01 T01530011  RH  038%=      5-min Rain = 0
KBY1 150743Z 26006KT 15/01 A2995 RMK A01 T01520011  RH  038%=      5-min Rain = 0
KBY1 150744Z 26007KT 15/01 A2995 RMK A01 T01510011  RH  038%=      5-min Rain = 0
KBY1 150745Z 26008KT 15/01 A2995 RMK A01 T01520012  RH  039%=      5-min Rain = 0
KBY1 150746Z 26007KT 15/01 A2995 RMK A01 T01520012  RH  038%=      5-min Rain = 0
KBY1 150747Z 26007KT 15/01 A2995 RMK A01 T01520012  RH  038%=      5-min Rain = 0
KBY1 150748Z 26007KT 15/01 A2995 RMK A01 T01520011  RH  038%=      5-min Rain = 0
KBY1 150749Z 26006KT 15/01 A2995 RMK A01 T01520011  RH  038%=      5-min Rain = 0
KBY1 150750Z 26007KT 15/01 A2995 RMK A01 T01520012  RH  039%=      5-min Rain = 0
KBY1 150751Z 25006KT 15/01 A2995 RMK A01 T01510011  RH  039%=      5-min Rain = 0
KBY1 150752Z 26006KT 15/01 A2995 RMK A01 T01510011  RH  039%=      5-min Rain = 0
KBY1 150753Z 25007KT 15/01 A2995 RMK A01 T01500011  RH  039%=      5-min Rain = 0
KBY1 150754Z 25007KT 15/01 A2995 RMK A01 T01510012  RH  039%=      5-min Rain = 0
KBY1 150755Z 25006KT 15/01 A2995 RMK A01 T01510012  RH  039%=      5-min Rain = 0
KBY1 150756Z 26005KT 15/01 A2995 RMK A01 T01500011  RH  039%=      5-min Rain = 0
KBY1 150757Z 26007KT 15/01 A2995 RMK A01 T01500012  RH  039%=      5-min Rain = 0
KBY1 150758Z 26007KT 15/01 A2995 RMK A01 T01500012  RH  039%=      5-min Rain = 0
KBY1 150759Z 25006KT 15/01 A2995 RMK A01 T01500012  RH  039%=      5-min Rain = 0
KBY1 150800Z 25007KT 15/01 A2995 RMK A01 T01500012  RH  039%=      5-min Rain = 0
KBY1 150801Z 26005KT 15/01 A2995 RMK A01 T01490012  RH  039%=      5-min Rain = 0
KBY1 150802Z 26005KT 15/01 A2995 RMK A01 T01490012  RH  039%=      5-min Rain = 0
KBY1 150803Z 26007KT 15/01 A2995 RMK A01 T01490013  RH  040%=      5-min Rain = 0
KBY1 150804Z 26005KT 15/01 A2995 RMK A01 T01490013  RH  040%=      5-min Rain = 0
KBY1 150805Z 25006KT 15/01 A2995 RMK A01 T01480013  RH  040%=      5-min Rain = 0
KBY1 150806Z 25006KT 15/01 A2995 RMK A01 T01480013  RH  040%=      5-min Rain = 0
KBY1 150807Z 25006KT 15/01 A2995 RMK A01 T01480013  RH  040%=      5-min Rain = 0
KBY1 150808Z 24006KT 15/01 A2995 RMK A01 T01480013  RH  040%=      5-min Rain = 0
KBY1 150809Z 25006KT 15/01 A2995 RMK A01 T01470013  RH  040%=      5-min Rain = 0
KBY1 150810Z 26006KT 15/01 A2995 RMK A01 T01470013  RH  040%=      5-min Rain = 0
KBY1 150811Z 25005KT 15/01 A2995 RMK A01 T01470014  RH  040%=      5-min Rain = 0
KBY1 150812Z 26005KT 15/01 A2995 RMK A01 T01460013  RH  040%=      5-min Rain = 0
KBY1 150813Z 25006KT 15/01 A2995 RMK A01 T01460013  RH  041%=      5-min Rain = 0
KBY1 150814Z 25006KT 15/01 A2995 RMK A01 T01450014  RH  041%=      5-min Rain = 0
KBY1 150815Z 25006KT 15/01 A2995 RMK A01 T01460014  RH  041%=      5-min Rain = 0
KBY1 150816Z 25006KT 15/01 A2995 RMK A01 T01460013  RH  041%=      5-min Rain = 0
KBY1 150817Z 25006KT 15/01 A2995 RMK A01 T01450013  RH  041%=      5-min Rain = 0
KBY1 150818Z 25006KT 15/01 A2995 RMK A01 T01450014  RH  041%=      5-min Rain = 0
KBY1 150819Z 25006KT 15/01 A2995 RMK A01 T01450014  RH  041%=      5-min Rain = 0
KBY1 150820Z 25005KT 15/01 A2995 RMK A01 T01450014  RH  041%=      5-min Rain = 0
KBY1 150821Z 26005KT 14/01 A2995 RMK A01 T01440014  RH  041%=      5-min Rain = 0
KBY1 150822Z 25006KT 14/01 A2995 RMK A01 T01440014  RH  041%=      5-min Rain = 0
KBY1 150823Z 26005KT 14/02 A2995 RMK A01 T01440015  RH  042%=      5-min Rain = 0
KBY1 150824Z 25005KT 14/02 A2995 RMK A01 T01440015  RH  042%=      5-min Rain = 0
KBY1 150825Z 25005KT 14/01 A2995 RMK A01 T01440014  RH  042%=      5-min Rain = 0
KBY1 150826Z 25005KT 14/01 A2995 RMK A01 T01430014  RH  042%=      5-min Rain = 0
KBY1 150827Z 25005KT 14/01 A2995 RMK A01 T01420014  RH  042%=      5-min Rain = 0
KBY1 150828Z 25006KT 14/01 A2995 RMK A01 T01420014  RH  042%=      5-min Rain = 0
KBY1 150829Z 24006KT 14/01 A2995 RMK A01 T01420014  RH  042%=      5-min Rain = 0
KBY1 150830Z 24006KT 14/01 A2995 RMK A01 T01420014  RH  042%=      5-min Rain = 0
KBY1 150831Z 24006KT 14/01 A2995 RMK A01 T01420014  RH  042%=      5-min Rain = 0
KBY1 150832Z 24005KT 14/01 A2995 RMK A01 T01410014  RH  042%=      5-min Rain = 0
KBY1 150833Z 24005KT 14/01 A2995 RMK A01 T01400013  RH  042%=      5-min Rain = 0
KBY1 150834Z 24006KT 14/01 A2995 RMK A01 T01400013  RH  042%=      5-min Rain = 0
KBY1 150835Z 25005KT 14/01 A2995 RMK A01 T01390013  RH  042%=      5-min Rain = 0
KBY1 150836Z 25005KT 14/01 A2995 RMK A01 T01380014  RH  043%=      5-min Rain = 0
KBY1 150837Z 25006KT 14/01 A2995 RMK A01 T01380014  RH  043%=      5-min Rain = 0
KBY1 150838Z 25006KT 14/02 A2995 RMK A01 T01390015  RH  043%=      5-min Rain = 0
KBY1 150839Z 25006KT 14/02 A2994 RMK A01 T01390015  RH  043%=      5-min Rain = 0
KBY1 150840Z 25006KT 14/02 A2994 RMK A01 T01390016  RH  043%=      5-min Rain = 0
KBY1 150841Z 25006KT 14/02 A2995 RMK A01 T01400016  RH  043%=      5-min Rain = 0
KBY1 150842Z 25006KT 14/02 A2995 RMK A01 T01400016  RH  043%=      5-min Rain = 0
KBY1 150843Z 25007KT 14/02 A2994 RMK A01 T01410017  RH  043%=      5-min Rain = 0
KBY1 150844Z 25007KT 14/02 A2994 RMK A01 T01410017  RH  043%=      5-min Rain = 0
KBY1 150845Z 26008KT 14/02 A2994 RMK A01 T01420018  RH  043%=      5-min Rain = 0
KBY1 150846Z 26008KT 14/02 A2994 RMK A01 T01420018  RH  043%=      5-min Rain = 0
KBY1 150847Z 26007KT 14/02 A2994 RMK A01 T01420018  RH  043%=      5-min Rain = 0
KBY1 150848Z 26007KT 14/02 A2994 RMK A01 T01430019  RH  043%=      5-min Rain = 0
KBY1 150849Z 26007KT 14/02 A2994 RMK A01 T01430019  RH  043%=      5-min Rain = 0
KBY1 150850Z 26007KT 14/02 A2994 RMK A01 T01430020  RH  043%=      5-min Rain = 0
KBY1 150851Z 26007KT 14/02 A2994 RMK A01 T01430020  RH  044%=      5-min Rain = 0
KBY1 150852Z 26008KT 14/02 A2994 RMK A01 T01430021  RH  044%=      5-min Rain = 0
KBY1 150853Z 26009KT 14/02 A2994 RMK A01 T01430021  RH  044%=      5-min Rain = 0
KBY1 150854Z 26009KT 14/02 A2994 RMK A01 T01430021  RH  044%=      5-min Rain = 0
KBY1 150855Z 26008KT 14/02 A2994 RMK A01 T01440022  RH  044%=      5-min Rain = 0
KBY1 150856Z 26007KT 14/02 A2994 RMK A01 T01440021  RH  044%=      5-min Rain = 0
KBY1 150857Z 26007KT 14/02 A2994 RMK A01 T01430021  RH  044%=      5-min Rain = 0
KBY1 150858Z 27008KT 14/02 A2994 RMK A01 T01430022  RH  044%=      5-min Rain = 0
KBY1 150859Z 26007KT 14/02 A2994 RMK A01 T01430021  RH  044%=      5-min Rain = 0
KBY1 150900Z 26008KT 14/02 A2994 RMK A01 T01420022  RH  044%=      5-min Rain = 0
KBY1 150901Z 27007KT 14/02 A2994 RMK A01 T01420022  RH  044%=      5-min Rain = 0
KBY1 150902Z 26008KT 14/02 A2994 RMK A01 T01410022  RH  045%=      5-min Rain = 0
KBY1 150903Z 26008KT 14/02 A2994 RMK A01 T01410023  RH  045%=      5-min Rain = 0
KBY1 150904Z 26009KT 14/02 A2994 RMK A01 T01410022  RH  045%=      5-min Rain = 0
KBY1 150905Z 26009KT 14/02 A2994 RMK A01 T01410023  RH  045%=      5-min Rain = 0
KBY1 150906Z 26009KT 14/02 A2994 RMK A01 T01410023  RH  045%=      5-min Rain = 0
KBY1 150907Z 26008KT 14/02 A2994 RMK A01 T01410024  RH  045%=      5-min Rain = 0
KBY1 150908Z 25009KT 14/02 A2994 RMK A01 T01410024  RH  045%=      5-min Rain = 0
KBY1 150909Z 25008KT 14/02 A2994 RMK A01 T01400024  RH  045%=      5-min Rain = 0
KBY1 150910Z 26008KT 14/03 A2994 RMK A01 T01400025  RH  046%=      5-min Rain = 0
KBY1 150911Z 26008KT 14/03 A2994 RMK A01 T01410025  RH  046%=      5-min Rain = 0
KBY1 150912Z 25008KT 14/03 A2994 RMK A01 T01400025  RH  046%=      5-min Rain = 0
KBY1 150913Z 25009KT 14/03 A2994 RMK A01 T01400026  RH  046%=      5-min Rain = 0
KBY1 150914Z 25007KT 14/03 A2994 RMK A01 T01400026  RH  046%=      5-min Rain = 0
KBY1 150915Z 25006KT 14/03 A2994 RMK A01 T01400026  RH  046%=      5-min Rain = 0
KBY1 150916Z 25007KT 14/03 A2994 RMK A01 T01400026  RH  046%=      5-min Rain = 0
KBY1 150917Z 25008KT 14/03 A2994 RMK A01 T01390027  RH  047%=      5-min Rain = 0
KBY1 150918Z 25007KT 14/03 A2994 RMK A01 T01390028  RH  047%=      5-min Rain = 0
KBY1 150919Z 25008KT 14/03 A2994 RMK A01 T01390028  RH  047%=      5-min Rain = 0
KBY1 150920Z 25008KT 14/03 A2994 RMK A01 T01390028  RH  047%=      5-min Rain = 0
KBY1 150921Z 25006KT 14/03 A2994 RMK A01 T01390028  RH  047%=      5-min Rain = 0
KBY1 150922Z 25008KT 14/03 A2994 RMK A01 T01390029  RH  047%=      5-min Rain = 0
KBY1 150923Z 25007KT 14/03 A2994 RMK A01 T01390029  RH  048%=      5-min Rain = 0
KBY1 150924Z 25008KT 14/03 A2993 RMK A01 T01390030  RH  048%=      5-min Rain = 0
KBY1 150925Z 25008KT 14/03 A2993 RMK A01 T01400030  RH  048%=      5-min Rain = 0
KBY1 150926Z 25007KT 14/03 A2993 RMK A01 T01400030  RH  048%=      5-min Rain = 0
KBY1 150927Z 26008KT 14/03 A2993 RMK A01 T01400031  RH  048%=      5-min Rain = 0
KBY1 150928Z 26009KT 14/03 A2993 RMK A01 T01390032  RH  048%=      5-min Rain = 0
KBY1 150929Z 26008KT 14/03 A2993 RMK A01 T01390032  RH  048%=      5-min Rain = 0
KBY1 150930Z 26008KT 14/03 A2993 RMK A01 T01390032  RH  048%=      5-min Rain = 0
KBY1 150931Z 26008KT 14/03 A2993 RMK A01 T01390033  RH  049%=      5-min Rain = 0
KBY1 150932Z 26008KT 14/03 A2993 RMK A01 T01390033  RH  049%=      5-min Rain = 0
KBY1 150933Z 26007KT 14/03 A2993 RMK A01 T01390033  RH  049%=      5-min Rain = 0
KBY1 150934Z 26009KT 14/03 A2993 RMK A01 T01380033  RH  049%=      5-min Rain = 0
KBY1 150935Z 26008KT 14/04 A2993 RMK A01 T01390035  RH  049%=      5-min Rain = 0
KBY1 150936Z 27007KT 14/04 A2993 RMK A01 T01390035  RH  049%=      5-min Rain = 0
KBY1 150937Z 26008KT 14/03 A2993 RMK A01 T01390034  RH  049%=      5-min Rain = 0
KBY1 150938Z 26007KT 14/03 A2994 RMK A01 T01390034  RH  049%=      5-min Rain = 0
KBY1 150939Z 26007KT 14/04 A2993 RMK A01 T01380035  RH  050%=      5-min Rain = 0
KBY1 150940Z 26006KT 14/04 A2993 RMK A01 T01380035  RH  050%=      5-min Rain = 0
KBY1 150941Z 26006KT 14/04 A2993 RMK A01 T01390036  RH  050%=      5-min Rain = 0
KBY1 150942Z 27007KT 14/04 A2993 RMK A01 T01380035  RH  050%=      5-min Rain = 0
KBY1 150943Z 26006KT 14/04 A2993 RMK A01 T01370035  RH  050%=      5-min Rain = 0
KBY1 150944Z 27006KT 14/04 A2993 RMK A01 T01370035  RH  050%=      5-min Rain = 0
KBY1 150945Z 26006KT 14/04 A2993 RMK A01 T01360035  RH  050%=      5-min Rain = 0
KBY1 150946Z 26006KT 14/04 A2993 RMK A01 T01360035  RH  051%=      5-min Rain = 0
KBY1 150947Z 26006KT 14/04 A2994 RMK A01 T01360036  RH  051%=      5-min Rain = 0
KBY1 150948Z 27006KT 14/04 A2993 RMK A01 T01360036  RH  051%=      5-min Rain = 0
KBY1 150949Z 27006KT 14/04 A2993 RMK A01 T01360036  RH  051%=      5-min Rain = 0
KBY1 150950Z 27007KT 14/04 A2993 RMK A01 T01360037  RH  051%=      5-min Rain = 0
KBY1 150951Z 26005KT 14/04 A2993 RMK A01 T01360037  RH  051%=      5-min Rain = 0
KBY1 150952Z 27006KT 14/04 A2993 RMK A01 T01350037  RH  051%=      5-min Rain = 0
KBY1 150953Z 27006KT 14/04 A2994 RMK A01 T01350037  RH  052%=      5-min Rain = 0
KBY1 150954Z 28006KT 14/04 A2994 RMK A01 T01350037  RH  052%=      5-min Rain = 0
KBY1 150955Z 28004KT 14/04 A2994 RMK A01 T01350037  RH  052%=      5-min Rain = 0
KBY1 150956Z 28005KT 13/04 A2994 RMK A01 T01340037  RH  052%=      5-min Rain = 0
KBY1 150957Z 27005KT 13/04 A2994 RMK A01 T01340037  RH  052%=      5-min Rain = 0
KBY1 150958Z 27006KT 13/04 A2994 RMK A01 T01330038  RH  052%=      5-min Rain = 0
KBY1 150959Z 27006KT 13/04 A2994 RMK A01 T01330038  RH  052%=      5-min Rain = 0
KBY1 151000Z 27006KT 13/04 A2994 RMK A01 T01330038  RH  052%=      5-min Rain = 0
KBY1 151001Z 27005KT 13/04 A2994 RMK A01 T01330038  RH  053%=      5-min Rain = 0
KBY1 151002Z 27004KT 13/04 A2994 RMK A01 T01330038  RH  053%=      5-min Rain = 0
KBY1 151003Z 28003KT 13/04 A2994 RMK A01 T01320038  RH  053%=      5-min Rain = 0
KBY1 151004Z 27005KT 13/04 A2994 RMK A01 T01310038  RH  053%=      5-min Rain = 0
KBY1 151005Z 27005KT 13/04 A2994 RMK A01 T01310038  RH  054%=      5-min Rain = 0
KBY1 151006Z 26004KT 13/04 A2994 RMK A01 T01300038  RH  054%=      5-min Rain = 0
KBY1 151007Z 26005KT 13/04 A2994 RMK A01 T01300038  RH  054%=      5-min Rain = 0
KBY1 151008Z 27005KT 13/04 A2994 RMK A01 T01300039  RH  054%=      5-min Rain = 0
KBY1 151009Z 27005KT 13/04 A2994 RMK A01 T01300039  RH  054%=      5-min Rain = 0
KBY1 151010Z 28005KT 13/04 A2994 RMK A01 T01310039  RH  053%=      5-min Rain = 0
KBY1 151011Z 27004KT 13/04 A2994 RMK A01 T01320039  RH  053%=      5-min Rain = 0
KBY1 151012Z 28005KT 13/04 A2994 RMK A01 T01320040  RH  054%=      5-min Rain = 0
KBY1 151013Z 27004KT 13/04 A2994 RMK A01 T01320040  RH  053%=      5-min Rain = 0
KBY1 151014Z 27004KT 13/04 A2994 RMK A01 T01320040  RH  053%=      5-min Rain = 0
KBY1 151015Z 27004KT 13/04 A2994 RMK A01 T01320040  RH  053%=      5-min Rain = 0
KBY1 151016Z 27004KT 13/04 A2994 RMK A01 T01330040  RH  053%=      5-min Rain = 0
KBY1 151017Z 27004KT 13/04 A2994 RMK A01 T01320040  RH  053%=      5-min Rain = 0
KBY1 151018Z 27004KT 13/04 A2994 RMK A01 T01320040  RH  054%=      5-min Rain = 0
KBY1 151019Z 28004KT 13/04 A2994 RMK A01 T01310040  RH  054%=      5-min Rain = 0
KBY1 151020Z 29002KT 13/04 A2994 RMK A01 T01320040  RH  054%=      5-min Rain = 0
KBY1 151021Z 29004KT 13/04 A2994 RMK A01 T01310040  RH  054%=      5-min Rain = 0
KBY1 151022Z 28004KT 13/04 A2994 RMK A01 T01310040  RH  054%=      5-min Rain = 0
KBY1 151023Z 27003KT 13/04 A2994 RMK A01 T01300040  RH  054%=      5-min Rain = 0
KBY1 151024Z 28004KT 13/04 A2994 RMK A01 T01300040  RH  054%=      5-min Rain = 0
KBY1 151025Z 28003KT 13/04 A2994 RMK A01 T01300040  RH  054%=      5-min Rain = 0
KBY1 151026Z 29003KT 13/04 A2994 RMK A01 T01300040  RH  054%=      5-min Rain = 0
KBY1 151027Z 29002KT 13/04 A2994 RMK A01 T01290040  RH  055%=      5-min Rain = 0
KBY1 151028Z 28001KT 13/04 A2994 RMK A01 T01290040  RH  055%=      5-min Rain = 0
KBY1 151029Z 27002KT 13/04 A2994 RMK A01 T01280039  RH  055%=      5-min Rain = 0
KBY1 151030Z 27005KT 13/04 A2994 RMK A01 T01280039  RH  055%=      5-min Rain = 0
KBY1 151031Z 27005KT 13/04 A2994 RMK A01 T01270039  RH  055%=      5-min Rain = 0
KBY1 151032Z 27005KT 13/04 A2994 RMK A01 T01270040  RH  055%=      5-min Rain = 0
KBY1 151033Z 27005KT 13/04 A2994 RMK A01 T01280040  RH  055%=      5-min Rain = 0
KBY1 151034Z 27005KT 13/04 A2994 RMK A01 T01280039  RH  055%=      5-min Rain = 0
KBY1 151035Z 27005KT 13/04 A2994 RMK A01 T01280040  RH  055%=      5-min Rain = 0
KBY1 151036Z 27005KT 13/04 A2994 RMK A01 T01280040  RH  055%=      5-min Rain = 0
KBY1 151037Z 27005KT 13/04 A2994 RMK A01 T01280041  RH  055%=      5-min Rain = 0
KBY1 151038Z 27006KT 13/04 A2994 RMK A01 T01290041  RH  055%=      5-min Rain = 0
KBY1 151039Z 27005KT 13/04 A2994 RMK A01 T01300041  RH  055%=      5-min Rain = 0
KBY1 151040Z 27006KT 13/04 A2994 RMK A01 T01290040  RH  055%=      5-min Rain = 0
KBY1 151041Z 27006KT 13/04 A2994 RMK A01 T01290040  RH  055%=      5-min Rain = 0
KBY1 151042Z 28005KT 13/04 A2994 RMK A01 T01290041  RH  055%=      5-min Rain = 0
KBY1 151043Z 27005KT 13/04 A2994 RMK A01 T01290041  RH  055%=      5-min Rain = 0
KBY1 151044Z 27005KT 13/04 A2994 RMK A01 T01300041  RH  055%=      5-min Rain = 0
KBY1 151045Z 28004KT 13/04 A2994 RMK A01 T01300042  RH  055%=      5-min Rain = 0
KBY1 151046Z 27005KT 13/04 A2994 RMK A01 T01310042  RH  055%=      5-min Rain = 0
KBY1 151047Z 28004KT 13/04 A2993 RMK A01 T01310042  RH  055%=      5-min Rain = 0
KBY1 151048Z 28006KT 13/04 A2993 RMK A01 T01310042  RH  055%=      5-min Rain = 0
KBY1 151049Z 29006KT 13/04 A2993 RMK A01 T01310042  RH  055%=      5-min Rain = 0
KBY1 151050Z 28007KT 13/04 A2993 RMK A01 T01310042  RH  055%=      5-min Rain = 0
KBY1 151051Z 29007KT 13/04 A2993 RMK A01 T01320043  RH  055%=      5-min Rain = 0
KBY1 151052Z 28007KT 13/04 A2993 RMK A01 T01320042  RH  055%=      5-min Rain = 0
KBY1 151053Z 28006KT 13/04 A2993 RMK A01 T01310042  RH  055%=      5-min Rain = 0
KBY1 151054Z 27005KT 13/04 A2993 RMK A01 T01320043  RH  055%=      5-min Rain = 0
KBY1 151055Z 28005KT 13/04 A2993 RMK A01 T01320043  RH  055%=      5-min Rain = 0
KBY1 151056Z 27005KT 13/04 A2993 RMK A01 T01320043  RH  055%=      5-min Rain = 0
KBY1 151057Z 28004KT 13/04 A2993 RMK A01 T01310042  RH  055%=      5-min Rain = 0
KBY1 151058Z 27006KT 13/04 A2993 RMK A01 T01310042  RH  055%=      5-min Rain = 0
KBY1 151059Z 27006KT 13/04 A2993 RMK A01 T01310043  RH  055%=      5-min Rain = 0
KBY1 151100Z 26006KT 13/04 A2993 RMK A01 T01310043  RH  055%=      5-min Rain = 0
KBY1 151101Z 27006KT 13/04 A2993 RMK A01 T01310043  RH  055%=      5-min Rain = 0
KBY1 151102Z 27009G14KT 13/04 A2994 RMK A01 T01300043  RH  055%=      5-min Rain = 0
KBY1 151103Z 27007KT 13/04 A2993 RMK A01 T01300043  RH  056%=      5-min Rain = 0
KBY1 151104Z 27007KT 13/04 A2993 RMK A01 T01300043  RH  056%=      5-min Rain = 0
KBY1 151105Z 27007KT 13/04 A2993 RMK A01 T01310044  RH  055%=      5-min Rain = 0
KBY1 151106Z 28007KT 13/04 A2993 RMK A01 T01320044  RH  055%=      5-min Rain = 0
KBY1 151107Z 27009KT 13/04 A2994 RMK A01 T01320044  RH  055%=      5-min Rain = 0
KBY1 151108Z 27008KT 13/04 A2994 RMK A01 T01330044  RH  055%=      5-min Rain = 0
KBY1 151109Z 27007KT 13/04 A2994 RMK A01 T01330044  RH  055%=      5-min Rain = 0
KBY1 151110Z 28006KT 13/04 A2994 RMK A01 T01330044  RH  055%=      5-min Rain = 0
KBY1 151111Z 27007KT 13/04 A2994 RMK A01 T01330044  RH  055%=      5-min Rain = 0
KBY1 151112Z 27007KT 13/04 A2994 RMK A01 T01340044  RH  055%=      5-min Rain = 0
KBY1 151113Z 27007KT 13/04 A2994 RMK A01 T01340044  RH  054%=      5-min Rain = 0
KBY1 151114Z 27008KT 13/04 A2993 RMK A01 T01340044  RH  054%=      5-min Rain = 0
KBY1 151115Z 27007KT 14/04 A2993 RMK A01 T01350044  RH  054%=      5-min Rain = 0
KBY1 151116Z 27006KT 14/04 A2993 RMK A01 T01350044  RH  054%=      5-min Rain = 0
KBY1 151117Z 27006KT 14/04 A2993 RMK A01 T01350044  RH  054%=      5-min Rain = 0
KBY1 151118Z 27006KT 14/04 A2993 RMK A01 T01350044  RH  054%=      5-min Rain = 0
KBY1 151119Z 27006KT 13/04 A2993 RMK A01 T01340044  RH  054%=      5-min Rain = 0
KBY1 151120Z 28006KT 13/04 A2993 RMK A01 T01340044  RH  055%=      5-min Rain = 0
KBY1 151121Z 27006KT 13/04 A2993 RMK A01 T01330044  RH  055%=      5-min Rain = 0
KBY1 151122Z 27006KT 13/04 A2993 RMK A01 T01330044  RH  055%=      5-min Rain = 0
KBY1 151123Z 27007KT 13/04 A2993 RMK A01 T01330044  RH  055%=      5-min Rain = 0
KBY1 151124Z 27006KT 13/04 A2993 RMK A01 T01330044  RH  055%=      5-min Rain = 0
KBY1 151125Z 27008KT 13/04 A2993 RMK A01 T01330044  RH  055%=      5-min Rain = 0
KBY1 151126Z 27007KT 13/04 A2993 RMK A01 T01330044  RH  055%=      5-min Rain = 0
KBY1 151127Z 27006KT 13/04 A2993 RMK A01 T01330044  RH  055%=      5-min Rain = 0
KBY1 151128Z 27007KT 13/04 A2993 RMK A01 T01330044  RH  055%=      5-min Rain = 0
KBY1 151129Z 27007KT 13/04 A2993 RMK A01 T01330044  RH  055%=      5-min Rain = 0
KBY1 151130Z 27008KT 13/04 A2993 RMK A01 T01320044  RH  055%=      5-min Rain = 0
KBY1 151131Z 26007KT 13/04 A2993 RMK A01 T01330044  RH  055%=      5-min Rain = 0
KBY1 151132Z 26006KT 13/04 A2993 RMK A01 T01320044  RH  055%=      5-min Rain = 0
KBY1 151133Z 26007KT 13/04 A2993 RMK A01 T01320044  RH  055%=      5-min Rain = 0
KBY1 151134Z 26006KT 13/04 A2993 RMK A01 T01310044  RH  055%=      5-min Rain = 0
KBY1 151135Z 26006KT 13/04 A2993 RMK A01 T01310044  RH  055%=      5-min Rain = 0
KBY1 151136Z 26006KT 13/04 A2994 RMK A01 T01300043  RH  056%=      5-min Rain = 0
KBY1 151137Z 26006KT 13/04 A2994 RMK A01 T01300043  RH  056%=      5-min Rain = 0
KBY1 151138Z 25007KT 13/04 A2994 RMK A01 T01290043  RH  056%=      5-min Rain = 0
KBY1 151139Z 25006KT 13/04 A2994 RMK A01 T01290044  RH  056%=      5-min Rain = 0
KBY1 151140Z 25005KT 13/04 A2994 RMK A01 T01290043  RH  056%=      5-min Rain = 0
KBY1 151141Z 26005KT 13/04 A2994 RMK A01 T01290043  RH  056%=      5-min Rain = 0
KBY1 151142Z 25004KT 13/04 A2994 RMK A01 T01290043  RH  056%=      5-min Rain = 0
KBY1 151143Z 25005KT 13/04 A2994 RMK A01 T01280043  RH  056%=      5-min Rain = 0
KBY1 151144Z 25006KT 13/04 A2994 RMK A01 T01280043  RH  056%=      5-min Rain = 0
KBY1 151145Z 24006KT 13/04 A2994 RMK A01 T01290044  RH  056%=      5-min Rain = 0
KBY1 151146Z 24005KT 13/04 A2994 RMK A01 T01290043  RH  056%=      5-min Rain = 0
KBY1 151147Z 25006KT 13/04 A2994 RMK A01 T01290043  RH  056%=      5-min Rain = 0
KBY1 151148Z 25005KT 13/04 A2994 RMK A01 T01290044  RH  056%=      5-min Rain = 0
KBY1 151149Z 25005KT 13/04 A2994 RMK A01 T01290043  RH  056%=      5-min Rain = 0
KBY1 151150Z 25006KT 13/04 A2994 RMK A01 T01280043  RH  056%=      5-min Rain = 0
KBY1 151151Z 25006KT 13/04 A2994 RMK A01 T01290044  RH  056%=      5-min Rain = 0
KBY1 151152Z 25005KT 13/04 A2994 RMK A01 T01300044  RH  056%=      5-min Rain = 0
KBY1 151153Z 26007KT 13/04 A2993 RMK A01 T01300043  RH  056%=      5-min Rain = 0
KBY1 151154Z 26007KT 13/04 A2993 RMK A01 T01310044  RH  055%=      5-min Rain = 0
KBY1 151155Z 27006KT 13/04 A2993 RMK A01 T01320044  RH  055%=      5-min Rain = 0
KBY1 151156Z 26006KT 13/04 A2993 RMK A01 T01320044  RH  055%=      5-min Rain = 0
KBY1 151157Z 26007KT 13/04 A2994 RMK A01 T01320044  RH  055%=      5-min Rain = 0
KBY1 151158Z 27005KT 13/04 A2993 RMK A01 T01320044  RH  055%=      5-min Rain = 0
KBY1 151159Z 26006KT 13/04 A2993 RMK A01 T01310043  RH  055%=      5-min Rain = 0
KBY1 151200Z 26006KT 13/04 A2993 RMK A01 T01300043  RH  055%=      5-min Rain = 0
KBY1 151201Z 26006KT 13/04 A2993 RMK A01 T01310044  RH  055%=      5-min Rain = 0
KBY1 151202Z 27006KT 13/04 A2993 RMK A01 T01300043  RH  055%=      5-min Rain = 0
KBY1 151203Z 27006KT 13/04 A2993 RMK A01 T01300043  RH  056%=      5-min Rain = 0
KBY1 151204Z 27006KT 13/04 A2993 RMK A01 T01300043  RH  056%=      5-min Rain = 0
KBY1 151205Z 26006KT 13/04 A2994 RMK A01 T01300043  RH  056%=      5-min Rain = 0
KBY1 151206Z 26006KT 13/04 A2994 RMK A01 T01310043  RH  055%=      5-min Rain = 0
KBY1 151207Z 26006KT 13/04 A2994 RMK A01 T01310043  RH  055%=      5-min Rain = 0
KBY1 151208Z 26005KT 13/04 A2994 RMK A01 T01310043  RH  055%=      5-min Rain = 0
KBY1 151209Z 26006KT 13/04 A2994 RMK A01 T01310043  RH  055%=      5-min Rain = 0
KBY1 151210Z 26005KT 13/04 A2994 RMK A01 T01300043  RH  055%=      5-min Rain = 0
KBY1 151211Z 26006KT 13/04 A2994 RMK A01 T01300043  RH  056%=      5-min Rain = 0
KBY1 151212Z 26005KT 13/04 A2994 RMK A01 T01290043  RH  056%=      5-min Rain = 0
KBY1 151213Z 26005KT 13/04 A2994 RMK A01 T01290043  RH  056%=      5-min Rain = 0
KBY1 151214Z 25004KT 13/04 A2994 RMK A01 T01290043  RH  056%=      5-min Rain = 0
KBY1 151215Z 25007KT 13/04 A2994 RMK A01 T01290043  RH  056%=      5-min Rain = 0
KBY1 151216Z 25007KT 13/04 A2994 RMK A01 T01300043  RH  056%=      5-min Rain = 0
KBY1 151217Z 25005KT 13/04 A2994 RMK A01 T01310043  RH  055%=      5-min Rain = 0
KBY1 151218Z 25007KT 13/04 A2994 RMK A01 T01310043  RH  055%=      5-min Rain = 0
KBY1 151219Z 25006KT 13/04 A2994 RMK A01 T01310043  RH  055%=      5-min Rain = 0
KBY1 151220Z 25007KT 13/04 A2994 RMK A01 T01320043  RH  055%=      5-min Rain = 0
KBY1 151221Z 25006KT 13/04 A2994 RMK A01 T01320042  RH  055%=      5-min Rain = 0
KBY1 151222Z 25007KT 13/04 A2994 RMK A01 T01320042  RH  054%=      5-min Rain = 0
KBY1 151223Z 25008KT 13/04 A2994 RMK A01 T01330043  RH  054%=      5-min Rain = 0
KBY1 151224Z 25008KT 13/04 A2994 RMK A01 T01330042  RH  054%=      5-min Rain = 0
KBY1 151225Z 26007KT 13/04 A2993 RMK A01 T01340042  RH  054%=      5-min Rain = 0
KBY1 151226Z 25007KT 13/04 A2993 RMK A01 T01340042  RH  054%=      5-min Rain = 0
KBY1 151227Z 25006KT 13/04 A2993 RMK A01 T01340042  RH  054%=      5-min Rain = 0
KBY1 151228Z 25007KT 13/04 A2993 RMK A01 T01340042  RH  054%=      5-min Rain = 0
KBY1 151229Z 26007KT 13/04 A2993 RMK A01 T01340042  RH  054%=      5-min Rain = 0
KBY1 151230Z 25008KT 13/04 A2994 RMK A01 T01340042  RH  054%=      5-min Rain = 0
KBY1 151231Z 25008KT 14/04 A2994 RMK A01 T01350042  RH  053%=      5-min Rain = 0
KBY1 151232Z 25008KT 14/04 A2994 RMK A01 T01360042  RH  053%=      5-min Rain = 0
KBY1 151233Z 25008KT 14/04 A2994 RMK A01 T01360042  RH  053%=      5-min Rain = 0
KBY1 151234Z 25008KT 14/04 A2994 RMK A01 T01360041  RH  053%=      5-min Rain = 0
KBY1 151235Z 25009KT 14/04 A2993 RMK A01 T01360041  RH  052%=      5-min Rain = 0
KBY1 151236Z 25009KT 14/04 A2993 RMK A01 T01360041  RH  052%=      5-min Rain = 0
KBY1 151237Z 25009KT 14/04 A2993 RMK A01 T01370041  RH  052%=      5-min Rain = 0
KBY1 151238Z 25008KT 14/04 A2993 RMK A01 T01370041  RH  052%=      5-min Rain = 0
KBY1 151239Z 25007KT 14/04 A2993 RMK A01 T01370040  RH  052%=      5-min Rain = 0
KBY1 151240Z 25008KT 14/04 A2993 RMK A01 T01370040  RH  052%=      5-min Rain = 0
KBY1 151241Z 26008KT 14/04 A2993 RMK A01 T01370041  RH  052%=      5-min Rain = 0
KBY1 151242Z 25009KT 14/04 A2993 RMK A01 T01360040  RH  052%=      5-min Rain = 0
KBY1 151243Z 25010KT 14/04 A2993 RMK A01 T01370041  RH  052%=      5-min Rain = 0
KBY1 151244Z 26010KT 14/04 A2993 RMK A01 T01370040  RH  052%=      5-min Rain = 0
KBY1 151245Z 25011KT 14/04 A2993 RMK A01 T01380041  RH  052%=      5-min Rain = 0
KBY1 151246Z 26012KT 14/04 A2993 RMK A01 T01390040  RH  051%=      5-min Rain = 0
KBY1 151247Z 26012KT 14/04 A2993 RMK A01 T01390041  RH  051%=      5-min Rain = 0
KBY1 151248Z 26012KT 14/04 A2993 RMK A01 T01390040  RH  051%=      5-min Rain = 0
KBY1 151249Z 26010G15KT 14/04 A2993 RMK A01 T01390040  RH  051%=      5-min Rain = 0
KBY1 151250Z 26011KT 14/04 A2993 RMK A01 T01390040  RH  051%=      5-min Rain = 0
KBY1 151251Z 27010KT 14/04 A2993 RMK A01 T01390040  RH  051%=      5-min Rain = 0
KBY1 151252Z 26010KT 14/04 A2993 RMK A01 T01390040  RH  051%=      5-min Rain = 0
KBY1 151253Z 27010KT 14/04 A2993 RMK A01 T01380040  RH  052%=      5-min Rain = 0
KBY1 151254Z 27008KT 14/04 A2993 RMK A01 T01380040  RH  052%=      5-min Rain = 0
KBY1 151255Z 27009KT 14/04 A2993 RMK A01 T01380040  RH  052%=      5-min Rain = 0
KBY1 151256Z 26010KT 14/04 A2993 RMK A01 T01380040  RH  052%=      5-min Rain = 0
KBY1 151257Z 26010KT 14/04 A2993 RMK A01 T01370040  RH  052%=      5-min Rain = 0
KBY1 151258Z 27009KT 14/04 A2993 RMK A01 T01370040  RH  052%=      5-min Rain = 0
KBY1 151259Z 27008KT 14/04 A2993 RMK A01 T01370040  RH  052%=      5-min Rain = 0
KBY1 151300Z 27009KT 14/04 A2993 RMK A01 T01360040  RH  052%=      5-min Rain = 0
KBY1 151301Z 26010KT 14/04 A2993 RMK A01 T01360040  RH  052%=      5-min Rain = 0
KBY1 151302Z 26008KT 14/04 A2994 RMK A01 T01360040  RH  052%=      5-min Rain = 0
KBY1 151303Z 26007KT 14/04 A2994 RMK A01 T01360040  RH  052%=      5-min Rain = 0
KBY1 151304Z 27008KT 14/04 A2994 RMK A01 T01360040  RH  052%=      5-min Rain = 0
KBY1 151305Z 27008KT 14/04 A2994 RMK A01 T01360039  RH  052%=      5-min Rain = 0
KBY1 151306Z 26007KT 14/04 A2994 RMK A01 T01350039  RH  052%=      5-min Rain = 0
KBY1 151307Z 26007KT 14/04 A2994 RMK A01 T01350039  RH  052%=      5-min Rain = 0
KBY1 151308Z 26008KT 14/04 A2994 RMK A01 T01350039  RH  052%=      5-min Rain = 0
KBY1 151309Z 26006KT 14/04 A2994 RMK A01 T01350039  RH  052%=      5-min Rain = 0
KBY1 151310Z 27006KT 13/04 A2994 RMK A01 T01340039  RH  052%=      5-min Rain = 0
KBY1 151311Z 26008KT 13/04 A2994 RMK A01 T01340039  RH  053%=      5-min Rain = 0
KBY1 151312Z 26007KT 13/04 A2994 RMK A01 T01340039  RH  053%=      5-min Rain = 0
KBY1 151313Z 26007KT 13/04 A2994 RMK A01 T01340039  RH  052%=      5-min Rain = 0
KBY1 151314Z 26006KT 13/04 A2994 RMK A01 T01340039  RH  052%=      5-min Rain = 0
KBY1 151315Z 26006KT 13/04 A2994 RMK A01 T01340039  RH  052%=      5-min Rain = 0
KBY1 151316Z 26008KT 13/04 A2993 RMK A01 T01330038  RH  053%=      5-min Rain = 0
KBY1 151317Z 26008KT 13/04 A2993 RMK A01 T01330038  RH  053%=      5-min Rain = 0
KBY1 151318Z 26006KT 13/04 A2993 RMK A01 T01340038  RH  052%=      5-min Rain = 0
KBY1 151319Z 26006KT 13/04 A2993 RMK A01 T01340038  RH  052%=      5-min Rain = 0
KBY1 151320Z 26007KT 13/04 A2993 RMK A01 T01340038  RH  052%=      5-min Rain = 0
KBY1 151321Z 26008KT 13/04 A2993 RMK A01 T01340038  RH  052%=      5-min Rain = 0
KBY1 151322Z 27008G13KT 13/04 A2993 RMK A01 T01340038  RH  052%=      5-min Rain = 0
KBY1 151323Z 27008KT 13/04 A2993 RMK A01 T01340038  RH  052%=      5-min Rain = 0
KBY1 151324Z 27007KT 14/04 A2993 RMK A01 T01350038  RH  052%=      5-min Rain = 0
KBY1 151325Z 27007KT 14/04 A2992 RMK A01 T01350039  RH  052%=      5-min Rain = 0
KBY1 151326Z 27007KT 14/04 A2992 RMK A01 T01350038  RH  052%=      5-min Rain = 0
KBY1 151327Z 27006KT 13/04 A2992 RMK A01 T01340038  RH  052%=      5-min Rain = 0
KBY1 151328Z 26007KT 13/04 A2993 RMK A01 T01340038  RH  052%=      5-min Rain = 0
KBY1 151329Z 26008KT 13/04 A2993 RMK A01 T01330038  RH  052%=      5-min Rain = 0
KBY1 151330Z 25007KT 13/04 A2993 RMK A01 T01330038  RH  053%=      5-min Rain = 0
KBY1 151331Z 25006KT 13/04 A2993 RMK A01 T01330038  RH  053%=      5-min Rain = 0
KBY1 151332Z 25008KT 13/04 A2993 RMK A01 T01330038  RH  053%=      5-min Rain = 0
KBY1 151333Z 25009KT 13/04 A2993 RMK A01 T01320038  RH  053%=      5-min Rain = 0
KBY1 151334Z 25010KT 13/04 A2993 RMK A01 T01330038  RH  053%=      5-min Rain = 0
KBY1 151335Z 25008KT 13/04 A2993 RMK A01 T01340038  RH  052%=      5-min Rain = 0
KBY1 151336Z 24010KT 13/04 A2992 RMK A01 T01340038  RH  052%=      5-min Rain = 0
KBY1 151337Z 25010KT 13/04 A2992 RMK A01 T01340038  RH  052%=      5-min Rain = 0
KBY1 151338Z 26009KT 14/04 A2992 RMK A01 T01350038  RH  052%=      5-min Rain = 0
KBY1 151339Z 26009KT 13/04 A2992 RMK A01 T01340038  RH  052%=      5-min Rain = 0
KBY1 151340Z 26009KT 13/04 A2992 RMK A01 T01340038  RH  052%=      5-min Rain = 0
KBY1 151341Z 26010KT 14/04 A2992 RMK A01 T01350038  RH  052%=      5-min Rain = 0
KBY1 151342Z 26010KT 14/04 A2992 RMK A01 T01350038  RH  052%=      5-min Rain = 0
KBY1 151343Z 26010KT 14/04 A2992 RMK A01 T01350038  RH  052%=      5-min Rain = 0
KBY1 151344Z 26010KT 14/04 A2992 RMK A01 T01350038  RH  052%=      5-min Rain = 0
KBY1 151345Z 25013KT 14/04 A2992 RMK A01 T01350038  RH  052%=      5-min Rain = 0
KBY1 151346Z 26011KT 14/04 A2992 RMK A01 T01360038  RH  052%=      5-min Rain = 0
KBY1 151347Z 26009KT 14/04 A2992 RMK A01 T01360038  RH  052%=      5-min Rain = 0
KBY1 151348Z 26009KT 14/04 A2992 RMK A01 T01360038  RH  052%=      5-min Rain = 0
KBY1 151349Z 26012KT 14/04 A2992 RMK A01 T01350038  RH  052%=      5-min Rain = 0
KBY1 151350Z 26010KT 14/04 A2992 RMK A01 T01350038  RH  052%=      5-min Rain = 0
KBY1 151351Z 26008KT 14/04 A2993 RMK A01 T01350038  RH  052%=      5-min Rain = 0
KBY1 151352Z 26008KT 14/04 A2993 RMK A01 T01350038  RH  052%=      5-min Rain = 0
KBY1 151353Z 27010KT 13/04 A2993 RMK A01 T01340038  RH  052%=      5-min Rain = 0
KBY1 151354Z 26009KT 13/04 A2993 RMK A01 T01340038  RH  052%=      5-min Rain = 0
KBY1 151355Z 26009KT 14/04 A2993 RMK A01 T01350039  RH  052%=      5-min Rain = 0
KBY1 151356Z 26009G14KT 13/04 A2993 RMK A01 T01340039  RH  052%=      5-min Rain = 0
KBY1 151357Z 26008KT 13/04 A2993 RMK A01 T01340039  RH  052%=      5-min Rain = 0
KBY1 151358Z 26008G13KT 13/04 A2993 RMK A01 T01340039  RH  052%=      5-min Rain = 0
KBY1 151359Z 26007KT 13/04 A2993 RMK A01 T01340038  RH  052%=      5-min Rain = 0
KBY1 151400Z 27008KT 13/04 A2992 RMK A01 T01330038  RH  052%=      5-min Rain = 0
KBY1 151401Z 26008KT 13/04 A2993 RMK A01 T01330038  RH  052%=      5-min Rain = 0
KBY1 151402Z 26008KT 13/04 A2993 RMK A01 T01330038  RH  053%=      5-min Rain = 0
KBY1 151403Z 26008KT 13/04 A2993 RMK A01 T01330038  RH  053%=      5-min Rain = 0
KBY1 151404Z 26010KT 13/04 A2993 RMK A01 T01340038  RH  052%=      5-min Rain = 0
KBY1 151405Z 26008KT 13/04 A2993 RMK A01 T01340038  RH  052%=      5-min Rain = 0
KBY1 151406Z 26008KT 13/04 A2993 RMK A01 T01340038  RH  052%=      5-min Rain = 0
KBY1 151407Z 26007KT 13/04 A2993 RMK A01 T01340038  RH  052%=      5-min Rain = 0
KBY1 151408Z 27009KT 13/04 A2993 RMK A01 T01340038  RH  052%=      5-min Rain = 0
KBY1 151409Z 27009KT 13/04 A2993 RMK A01 T01340038  RH  052%=      5-min Rain = 0
KBY1 151410Z 27008KT 13/04 A2993 RMK A01 T01340038  RH  052%=      5-min Rain = 0
KBY1 151411Z 27008KT 13/04 A2993 RMK A01 T01340038  RH  052%=      5-min Rain = 0
KBY1 151412Z 27008KT 13/04 A2993 RMK A01 T01340038  RH  052%=      5-min Rain = 0
KBY1 151413Z 27008KT 13/04 A2993 RMK A01 T01340037  RH  052%=      5-min Rain = 0
KBY1 151414Z 27008KT 13/04 A2993 RMK A01 T01340037  RH  052%=      5-min Rain = 0
KBY1 151415Z 27007KT 13/04 A2993 RMK A01 T01340037  RH  052%=      5-min Rain = 0
KBY1 151416Z 27009KT 13/04 A2993 RMK A01 T01340037  RH  052%=      5-min Rain = 0
KBY1 151417Z 27009KT 13/04 A2993 RMK A01 T01340038  RH  052%=      5-min Rain = 0
KBY1 151418Z 27008KT 13/04 A2993 RMK A01 T01340037  RH  052%=      5-min Rain = 0
KBY1 151419Z 27008KT 13/04 A2993 RMK A01 T01340037  RH  052%=      5-min Rain = 0
KBY1 151420Z 27008KT 13/04 A2994 RMK A01 T01340037  RH  052%=      5-min Rain = 0
KBY1 151421Z 27007KT 13/04 A2994 RMK A01 T01340037  RH  052%=      5-min Rain = 0
KBY1 151422Z 27008KT 13/04 A2994 RMK A01 T01340037  RH  052%=      5-min Rain = 0
KBY1 151423Z 27008KT 13/04 A2994 RMK A01 T01340037  RH  052%=      5-min Rain = 0
KBY1 151424Z 27008KT 13/04 A2994 RMK A01 T01340037  RH  052%=      5-min Rain = 0
KBY1 151425Z 27009KT 13/04 A2994 RMK A01 T01340037  RH  052%=      5-min Rain = 0
KBY1 151426Z 27007KT 14/04 A2994 RMK A01 T01350037  RH  052%=      5-min Rain = 0
KBY1 151427Z 27007KT 14/04 A2994 RMK A01 T01350037  RH  052%=      5-min Rain = 0
KBY1 151428Z 27009KT 14/04 A2994 RMK A01 T01350037  RH  051%=      5-min Rain = 0
KBY1 151429Z 28008KT 14/04 A2994 RMK A01 T01360037  RH  051%=      5-min Rain = 0
KBY1 151430Z 28005KT 14/04 A2994 RMK A01 T01360037  RH  051%=      5-min Rain = 0
KBY1 151431Z 28006KT 14/04 A2994 RMK A01 T01360038  RH  051%=      5-min Rain = 0
KBY1 151432Z 28006KT 14/04 A2994 RMK A01 T01360038  RH  051%=      5-min Rain = 0
KBY1 151433Z 28007KT 14/04 A2995 RMK A01 T01360038  RH  051%=      5-min Rain = 0
KBY1 151434Z 28005KT 14/04 A2995 RMK A01 T01360038  RH  051%=      5-min Rain = 0
KBY1 151435Z 28006KT 14/04 A2995 RMK A01 T01360038  RH  051%=      5-min Rain = 0
KBY1 151436Z 29007KT 14/04 A2995 RMK A01 T01360037  RH  051%=      5-min Rain = 0
KBY1 151437Z 28006KT 14/04 A2995 RMK A01 T01360038  RH  051%=      5-min Rain = 0
KBY1 151438Z 29007KT 14/04 A2995 RMK A01 T01360037  RH  051%=      5-min Rain = 0
KBY1 151439Z 29009KT 14/04 A2994 RMK A01 T01360037  RH  051%=      5-min Rain = 0
KBY1 151440Z 29008KT 14/04 A2994 RMK A01 T01370037  RH  051%=      5-min Rain = 0
KBY1 151441Z 29009KT 14/04 A2994 RMK A01 T01370037  RH  051%=      5-min Rain = 0
KBY1 151442Z 29008KT 14/04 A2994 RMK A01 T01370037  RH  051%=      5-min Rain = 0
KBY1 151443Z 29010KT 14/04 A2994 RMK A01 T01380037  RH  051%=      5-min Rain = 0
KBY1 151444Z 29010KT 14/04 A2994 RMK A01 T01380037  RH  051%=      5-min Rain = 0
KBY1 151445Z 28007KT 14/04 A2994 RMK A01 T01380037  RH  050%=      5-min Rain = 0
KBY1 151446Z 29007KT 14/04 A2994 RMK A01 T01380037  RH  050%=      5-min Rain = 0
KBY1 151447Z 28008KT 14/04 A2994 RMK A01 T01390037  RH  050%=      5-min Rain = 0
KBY1 151448Z 28007KT 14/04 A2994 RMK A01 T01380037  RH  050%=      5-min Rain = 0
KBY1 151449Z 30010KT 14/04 A2994 RMK A01 T01380036  RH  050%=      5-min Rain = 0
KBY1 151450Z 29007KT 14/04 A2994 RMK A01 T01390036  RH  050%=      5-min Rain = 0
KBY1 151451Z 29008KT 14/04 A2994 RMK A01 T01390036  RH  050%=      5-min Rain = 0
KBY1 151452Z 29008KT 14/04 A2994 RMK A01 T01390036  RH  050%=      5-min Rain = 0
KBY1 151453Z 29008KT 14/04 A2994 RMK A01 T01390035  RH  049%=      5-min Rain = 0
KBY1 151454Z 29008KT 14/04 A2995 RMK A01 T01400035  RH  049%=      5-min Rain = 0
KBY1 151455Z 29009KT 14/04 A2995 RMK A01 T01400035  RH  049%=      5-min Rain = 0
KBY1 151456Z 31008KT 14/04 A2995 RMK A01 T01410035  RH  049%=      5-min Rain = 0
KBY1 151457Z 30007KT 14/04 A2995 RMK A01 T01410036  RH  049%=      5-min Rain = 0
KBY1 151458Z 31005KT 14/04 A2995 RMK A01 T01410036  RH  049%=      5-min Rain = 0
KBY1 151459Z 31005KT 14/04 A2995 RMK A01 T01410036  RH  049%=      5-min Rain = 0
KBY1 151500Z 33006KT 14/04 A2994 RMK A01 T01410037  RH  049%=      5-min Rain = 0
KBY1 151501Z 34006KT 14/04 A2994 RMK A01 T01410037  RH  049%=      5-min Rain = 0
KBY1 151502Z 34007KT 14/04 A2994 RMK A01 T01410037  RH  050%=      5-min Rain = 0
KBY1 151503Z 34008KT 14/04 A2994 RMK A01 T01390036  RH  050%=      5-min Rain = 0
KBY1 151504Z 35007KT 14/04 A2994 RMK A01 T01380036  RH  050%=      5-min Rain = 0
KBY1 151505Z 34007KT 14/04 A2994 RMK A01 T01380037  RH  051%=      5-min Rain = 0
KBY1 151506Z 34008KT 14/04 A2994 RMK A01 T01380037  RH  051%=      5-min Rain = 0
KBY1 151507Z 34007KT 14/04 A2994 RMK A01 T01380037  RH  050%=      5-min Rain = 0
KBY1 151508Z 33007KT 14/04 A2994 RMK A01 T01380036  RH  050%=      5-min Rain = 0
KBY1 151509Z 32007KT 14/04 A2994 RMK A01 T01380036  RH  050%=      5-min Rain = 0
KBY1 151510Z 32008KT 14/04 A2994 RMK A01 T01390037  RH  050%=      5-min Rain = 0
KBY1 151511Z 32006KT 14/04 A2994 RMK A01 T01400036  RH  050%=      5-min Rain = 0
KBY1 151512Z 32007KT 14/04 A2994 RMK A01 T01400036  RH  050%=      5-min Rain = 0
KBY1 151513Z 31007KT 14/04 A2994 RMK A01 T01410036  RH  049%=      5-min Rain = 0
KBY1 151514Z 30007KT 14/04 A2994 RMK A01 T01410037  RH  049%=      5-min Rain = 0
KBY1 151515Z 31007KT 14/04 A2994 RMK A01 T01420036  RH  049%=      5-min Rain = 0
KBY1 151516Z 31006KT 14/04 A2994 RMK A01 T01420036  RH  049%=      5-min Rain = 0
KBY1 151517Z 32005KT 14/04 A2994 RMK A01 T01430037  RH  049%=      5-min Rain = 0
KBY1 151518Z 31008KT 14/04 A2994 RMK A01 T01430037  RH  049%=      5-min Rain = 0
KBY1 151519Z 31009KT 14/04 A2994 RMK A01 T01440037  RH  049%=      5-min Rain = 0
KBY1 151520Z 31008KT 14/04 A2994 RMK A01 T01440037  RH  048%=      5-min Rain = 0
KBY1 151521Z 31008KT 15/04 A2994 RMK A01 T01460038  RH  048%=      5-min Rain = 0
KBY1 151522Z 31009KT 15/04 A2994 RMK A01 T01470037  RH  048%=      5-min Rain = 0
KBY1 151523Z 31007KT 15/04 A2994 RMK A01 T01470038  RH  048%=      5-min Rain = 0
KBY1 151524Z 31007KT 15/04 A2994 RMK A01 T01480039  RH  048%=      5-min Rain = 0
KBY1 151525Z 32010KT 15/04 A2994 RMK A01 T01490039  RH  048%=      5-min Rain = 0
KBY1 151526Z 31009KT 15/04 A2994 RMK A01 T01480038  RH  048%=      5-min Rain = 0
KBY1 151527Z 31008KT 15/04 A2994 RMK A01 T01490038  RH  047%=      5-min Rain = 0
KBY1 151528Z 29009KT 15/04 A2994 RMK A01 T01490038  RH  047%=      5-min Rain = 0
KBY1 151529Z 30009KT 15/04 A2994 RMK A01 T01500037  RH  047%=      5-min Rain = 0
KBY1 151530Z 29010KT 15/04 A2994 RMK A01 T01510037  RH  046%=      5-min Rain = 0
KBY1 151531Z 30010KT 15/04 A2994 RMK A01 T01520037  RH  046%=      5-min Rain = 0
KBY1 151532Z 29011KT 15/04 A2994 RMK A01 T01520036  RH  046%=      5-min Rain = 0
KBY1 151533Z 27011KT 15/04 A2994 RMK A01 T01520035  RH  046%=      5-min Rain = 0
KBY1 151534Z 27008KT 15/04 A2994 RMK A01 T01520036  RH  046%=      5-min Rain = 0
KBY1 151535Z 27008KT 15/04 A2994 RMK A01 T01540036  RH  045%=      5-min Rain = 0
KBY1 151536Z 28009KT 15/04 A2994 RMK A01 T01540035  RH  045%=      5-min Rain = 0
KBY1 151537Z 27011KT 15/03 A2994 RMK A01 T01540034  RH  045%=      5-min Rain = 0
KBY1 151538Z 28009KT 15/03 A2994 RMK A01 T01540034  RH  045%=      5-min Rain = 0
KBY1 151539Z 29009KT 15/03 A2994 RMK A01 T01540034  RH  045%=      5-min Rain = 0
KBY1 151540Z 28009KT 15/03 A2994 RMK A01 T01540034  RH  045%=      5-min Rain = 0
KBY1 151541Z 28007KT 16/03 A2994 RMK A01 T01550034  RH  044%=      5-min Rain = 0
KBY1 151542Z 28010G15KT 16/03 A2994 RMK A01 T01550034  RH  044%=      5-min Rain = 0
KBY1 151543Z 27012KT 16/03 A2994 RMK A01 T01560032  RH  043%=      5-min Rain = 0
KBY1 151544Z 28010G17KT 15/03 A2994 RMK A01 T01540031  RH  043%=      5-min Rain = 0
KBY1 151545Z 29009G14KT 15/03 A2995 RMK A01 T01540032  RH  044%=      5-min Rain = 0
KBY1 151546Z 29010KT 15/03 A2995 RMK A01 T01540032  RH  044%=      5-min Rain = 0
KBY1 151547Z 29010KT 15/03 A2995 RMK A01 T01540032  RH  044%=      5-min Rain = 0
KBY1 151548Z 29009KT 15/03 A2995 RMK A01 T01530032  RH  044%=      5-min Rain = 0
KBY1 151549Z 29010KT 15/03 A2995 RMK A01 T01530032  RH  044%=      5-min Rain = 0
KBY1 151550Z 28010KT 15/03 A2995 RMK A01 T01520032  RH  044%=      5-min Rain = 0
KBY1 151551Z 29009KT 15/03 A2995 RMK A01 T01510032  RH  045%=      5-min Rain = 0
KBY1 151552Z 28008KT 15/03 A2995 RMK A01 T01510032  RH  045%=      5-min Rain = 0
KBY1 151553Z 29008KT 15/03 A2995 RMK A01 T01510033  RH  045%=      5-min Rain = 0
KBY1 151554Z 29008KT 15/03 A2995 RMK A01 T01510031  RH  045%=      5-min Rain = 0
KBY1 151555Z 28008KT 15/03 A2995 RMK A01 T01510032  RH  045%=      5-min Rain = 0
KBY1 151556Z 28007KT 15/03 A2995 RMK A01 T01520032  RH  044%=      5-min Rain = 0
KBY1 151557Z 29011KT 15/03 A2995 RMK A01 T01520031  RH  044%=      5-min Rain = 0
KBY1 151558Z 28010KT 15/03 A2995 RMK A01 T01510031  RH  044%=      5-min Rain = 0
KBY1 151559Z 29010KT 15/03 A2995 RMK A01 T01510030  RH  044%=      5-min Rain = 0
KBY1 151600Z 28010G15KT 15/03 A2995 RMK A01 T01510031  RH  044%=      5-min Rain = 0
KBY1 151601Z 28009KT 15/03 A2995 RMK A01 T01500030  RH  044%=      5-min Rain = 0
KBY1 151602Z 29011KT 15/03 A2995 RMK A01 T01500030  RH  044%=      5-min Rain = 0
KBY1 151603Z 27009KT 15/03 A2995 RMK A01 T01500030  RH  044%=      5-min Rain = 0
KBY1 151604Z 29008KT 15/03 A2995 RMK A01 T01500030  RH  045%=      5-min Rain = 0
KBY1 151605Z 29009G15KT 15/03 A2995 RMK A01 T01510031  RH  044%=      5-min Rain = 0
KBY1 151606Z 29010G16KT 15/03 A2995 RMK A01 T01500030  RH  044%=      5-min Rain = 0
KBY1 151607Z 28013KT 15/03 A2995 RMK A01 T01500030  RH  044%=      5-min Rain = 0
KBY1 151608Z 29012KT 15/03 A2995 RMK A01 T01500030  RH  044%=      5-min Rain = 0
KBY1 151609Z 29011KT 15/03 A2995 RMK A01 T01500029  RH  044%=      5-min Rain = 0
KBY1 151610Z 29009KT 15/03 A2995 RMK A01 T01490030  RH  044%=      5-min Rain = 0
KBY1 151611Z 29013KT 15/03 A2995 RMK A01 T01490030  RH  044%=      5-min Rain = 0
KBY1 151612Z 28011KT 15/03 A2995 RMK A01 T01500029  RH  044%=      5-min Rain = 0
KBY1 151613Z 27009G15KT 15/03 A2995 RMK A01 T01500029  RH  044%=      5-min Rain = 0
KBY1 151614Z 28008KT 15/03 A2995 RMK A01 T01510030  RH  044%=      5-min Rain = 0
KBY1 151615Z 28010KT 15/03 A2995 RMK A01 T01520030  RH  044%=      5-min Rain = 0
KBY1 151616Z 28011G16KT 16/03 A2995 RMK A01 T01550030  RH  043%=      5-min Rain = 0
KBY1 151617Z 27008KT 16/03 A2995 RMK A01 T01560030  RH  043%=      5-min Rain = 0
KBY1 151618Z 27009G14KT 16/03 A2995 RMK A01 T01570031  RH  043%=      5-min Rain = 0
KBY1 151619Z 27011KT 16/03 A2995 RMK A01 T01580031  RH  042%=      5-min Rain = 0
KBY1 151620Z 27011G17KT 16/03 A2995 RMK A01 T01590030  RH  042%=      5-min Rain = 0
KBY1 151621Z 28012KT 16/03 A2995 RMK A01 T01600029  RH  041%=      5-min Rain = 0
KBY1 151622Z 27011KT 16/03 A2995 RMK A01 T01590028  RH  041%=      5-min Rain = 0
KBY1 151623Z 27012G17KT 16/03 A2995 RMK A01 T01590028  RH  041%=      5-min Rain = 0
KBY1 151624Z 27010KT 16/03 A2995 RMK A01 T01590028  RH  041%=      5-min Rain = 0
KBY1 151625Z 29012G19KT 16/03 A2995 RMK A01 T01590028  RH  041%=      5-min Rain = 0
KBY1 151626Z 28012G17KT 16/03 A2995 RMK A01 T01590027  RH  041%=      5-min Rain = 0
KBY1 151627Z 27012KT 16/03 A2995 RMK A01 T01590028  RH  041%=      5-min Rain = 0
KBY1 151628Z 27010KT 16/03 A2995 RMK A01 T01600028  RH  041%=      5-min Rain = 0
KBY1 151629Z 27011KT 16/03 A2995 RMK A01 T01610028  RH  041%=      5-min Rain = 0
KBY1 151630Z 26011KT 16/03 A2995 RMK A01 T01620028  RH  041%=      5-min Rain = 0
KBY1 151631Z 26011KT 16/03 A2995 RMK A01 T01620028  RH  041%=      5-min Rain = 0
KBY1 151632Z 26010KT 16/03 A2995 RMK A01 T01630029  RH  041%=      5-min Rain = 0
KBY1 151633Z 28009G14KT 16/03 A2995 RMK A01 T01640029  RH  040%=      5-min Rain = 0
KBY1 151634Z 27011KT 16/03 A2995 RMK A01 T01640028  RH  040%=      5-min Rain = 0
KBY1 151635Z 26009KT 17/03 A2995 RMK A01 T01650028  RH  040%=      5-min Rain = 0
KBY1 151636Z 27012KT 17/03 A2995 RMK A01 T01660029  RH  040%=      5-min Rain = 0
KBY1 151637Z 27010KT 17/03 A2995 RMK A01 T01670028  RH  039%=      5-min Rain = 0
KBY1 151638Z 27011KT 17/03 A2995 RMK A01 T01670028  RH  039%=      5-min Rain = 0
KBY1 151639Z 26012KT 17/03 A2995 RMK A01 T01680028  RH  039%=      5-min Rain = 0
KBY1 151640Z 27012KT 17/03 A2995 RMK A01 T01670027  RH  039%=      5-min Rain = 0
KBY1 151641Z 27011KT 17/03 A2995 RMK A01 T01660026  RH  039%=      5-min Rain = 0
KBY1 151642Z 27013KT 17/03 A2995 RMK A01 T01660026  RH  039%=      5-min Rain = 0
KBY1 151643Z 27012KT 17/03 A2995 RMK A01 T01660025  RH  039%=      5-min Rain = 0
KBY1 151644Z 27012KT 17/03 A2995 RMK A01 T01660025  RH  039%=      5-min Rain = 0
KBY1 151645Z 26009KT 17/03 A2995 RMK A01 T01670025  RH  039%=      5-min Rain = 0
KBY1 151646Z 26011KT 17/03 A2994 RMK A01 T01690025  RH  038%=      5-min Rain = 0
KBY1 151647Z 26012KT 17/03 A2994 RMK A01 T01700025  RH  038%=      5-min Rain = 0
KBY1 151648Z 27011KT 17/03 A2994 RMK A01 T01710025  RH  038%=      5-min Rain = 0
KBY1 151649Z 27011KT 17/02 A2994 RMK A01 T01710024  RH  037%=      5-min Rain = 0
KBY1 151650Z 27012KT 17/02 A2994 RMK A01 T01710024  RH  037%=      5-min Rain = 0
KBY1 151651Z 27013KT 17/02 A2994 RMK A01 T01720024  RH  037%=      5-min Rain = 0
KBY1 151652Z 25010KT 17/02 A2995 RMK A01 T01720024  RH  037%=      5-min Rain = 0
KBY1 151653Z 27010KT 18/03 A2995 RMK A01 T01750025  RH  037%=      5-min Rain = 0
KBY1 151654Z 29011KT 18/03 A2995 RMK A01 T01770026  RH  036%=      5-min Rain = 0
KBY1 151655Z 28008KT 18/03 A2995 RMK A01 T01760026  RH  037%=      5-min Rain = 0
KBY1 151656Z 28007KT 18/03 A2995 RMK A01 T01760027  RH  037%=      5-min Rain = 0
KBY1 151657Z 27007KT 18/03 A2995 RMK A01 T01770027  RH  037%=      5-min Rain = 0
KBY1 151658Z 29010KT 18/03 A2995 RMK A01 T01770027  RH  036%=      5-min Rain = 0
KBY1 151659Z 29010G15KT 18/03 A2995 RMK A01 T01770025  RH  036%=      5-min Rain = 0
KBY1 151700Z 30010KT 18/03 A2995 RMK A01 T01760025  RH  036%=      5-min Rain = 0
KBY1 151701Z 29011G17KT 18/02 A2995 RMK A01 T01760024  RH  036%=      5-min Rain = 0
KBY1 151702Z 29014KT 18/02 A2995 RMK A01 T01760024  RH  036%=      5-min Rain = 0
KBY1 151703Z 28011KT 18/02 A2995 RMK A01 T01770024  RH  036%=      5-min Rain = 0
KBY1 151704Z 26007G12KT 18/03 A2995 RMK A01 T01770025  RH  036%=      5-min Rain = 0
KBY1 151705Z 27012KT 18/03 A2995 RMK A01 T01800025  RH  035%=      5-min Rain = 0
KBY1 151706Z 27010KT 18/02 A2994 RMK A01 T01810024  RH  035%=      5-min Rain = 0
KBY1 151707Z 27012KT 18/02 A2994 RMK A01 T01810024  RH  035%=      5-min Rain = 0
KBY1 151708Z 29012G17KT 18/02 A2994 RMK A01 T01820024  RH  035%=      5-min Rain = 0
KBY1 151709Z 27011KT 18/02 A2994 RMK A01 T01830024  RH  035%=      5-min Rain = 0
KBY1 151710Z 28008KT 18/02 A2995 RMK A01 T01830024  RH  035%=      5-min Rain = 0
KBY1 151711Z 28012G18KT 19/02 A2995 RMK A01 T01850024  RH  034%=      5-min Rain = 0
KBY1 151712Z 27014KT 19/02 A2995 RMK A01 T01850024  RH  034%=      5-min Rain = 0
KBY1 151713Z 28014G19KT 19/03 A2995 RMK A01 T01860025  RH  034%=      5-min Rain = 0
KBY1 151714Z 28010KT 19/03 A2995 RMK A01 T01850025  RH  034%=      5-min Rain = 0
KBY1 151715Z 27011KT 19/03 A2995 RMK A01 T01850025  RH  034%=      5-min Rain = 0
KBY1 151716Z 27010G15KT 19/03 A2995 RMK A01 T01850025  RH  034%=      5-min Rain = 0
KBY1 151717Z 26011KT 19/03 A2995 RMK A01 T01870026  RH  034%=      5-min Rain = 0
KBY1 151718Z 28010KT 19/03 A2995 RMK A01 T01880026  RH  034%=      5-min Rain = 0
KBY1 151719Z 27013KT 19/03 A2994 RMK A01 T01890026  RH  034%=      5-min Rain = 0
KBY1 151720Z 26013KT 19/03 A2994 RMK A01 T01890026  RH  034%=      5-min Rain = 0
KBY1 151721Z 27011KT 19/03 A2994 RMK A01 T01890026  RH  034%=      5-min Rain = 0
KBY1 151722Z 28010KT 19/03 A2995 RMK A01 T01890026  RH  034%=      5-min Rain = 0
KBY1 151723Z 29012G19KT 19/03 A2995 RMK A01 T01900026  RH  034%=      5-min Rain = 0
KBY1 151724Z 29014KT 19/03 A2995 RMK A01 T01900025  RH  033%=      5-min Rain = 0
KBY1 151725Z 27012KT 19/03 A2995 RMK A01 T01890025  RH  034%=      5-min Rain = 0
KBY1 151726Z 27011KT 19/03 A2995 RMK A01 T01890025  RH  033%=      5-min Rain = 0
KBY1 151727Z 28010KT 19/03 A2995 RMK A01 T01910026  RH  033%=      5-min Rain = 0
KBY1 151728Z 26014KT 19/03 A2994 RMK A01 T01930027  RH  033%=      5-min Rain = 0
KBY1 151729Z 26012KT 20/03 A2994 RMK A01 T01960028  RH  033%=      5-min Rain = 0
KBY1 151730Z 27017G23KT 20/03 A2994 RMK A01 T01980029  RH  033%=      5-min Rain = 0
KBY1 151731Z 27018KT 20/03 A2994 RMK A01 T01980030  RH  033%=      5-min Rain = 0
KBY1 151732Z 27018KT 20/03 A2994 RMK A01 T01970030  RH  033%=      5-min Rain = 0
KBY1 151733Z 27016KT 20/03 A2994 RMK A01 T01970029  RH  033%=      5-min Rain = 0
KBY1 151734Z 26015KT 20/03 A2995 RMK A01 T01970029  RH  033%=      5-min Rain = 0
KBY1 151735Z 26014KT 20/03 A2995 RMK A01 T01990030  RH  033%=      5-min Rain = 0
KBY1 151736Z 27018KT 20/03 A2995 RMK A01 T02000030  RH  032%=      5-min Rain = 0
KBY1 151737Z 26017G25KT 20/03 A2995 RMK A01 T02000030  RH  032%=      5-min Rain = 0
KBY1 151738Z 26018G23KT 20/03 A2995 RMK A01 T02000031  RH  033%=      5-min Rain = 0
KBY1 151739Z 26016G22KT 20/03 A2995 RMK A01 T02000031  RH  033%=      5-min Rain = 0
KBY1 151740Z 25019G25KT 20/03 A2994 RMK A01 T02010032  RH  033%=      5-min Rain = 0
KBY1 151741Z 26015G21KT 20/03 A2995 RMK A01 T02010032  RH  033%=      5-min Rain = 0
KBY1 151742Z 25021G27KT 20/03 A2994 RMK A01 T02010032  RH  033%=      5-min Rain = 0
KBY1 151743Z 26016KT 20/03 A2994 RMK A01 T02010032  RH  033%=      5-min Rain = 0
KBY1 151744Z 26015G20KT 20/03 A2994 RMK A01 T02010032  RH  033%=      5-min Rain = 0
KBY1 151745Z 26018KT 20/03 A2994 RMK A01 T02010032  RH  033%=      5-min Rain = 0
KBY1 151746Z 26015G20KT 20/03 A2994 RMK A01 T02020032  RH  033%=      5-min Rain = 0
KBY1 151747Z 26016G23KT 20/03 A2994 RMK A01 T02020033  RH  033%=      5-min Rain = 0
KBY1 151748Z 26022G30KT 20/03 A2994 RMK A01 T02030033  RH  033%=      5-min Rain = 0
KBY1 151749Z 26021G26KT 20/04 A2994 RMK A01 T02030035  RH  033%=      5-min Rain = 0
KBY1 151750Z 26022G27KT 20/04 A2994 RMK A01 T02030036  RH  033%=      5-min Rain = 0
KBY1 151751Z 26021KT 20/04 A2994 RMK A01 T02030036  RH  033%=      5-min Rain = 0
KBY1 151752Z 26018G25KT 20/04 A2994 RMK A01 T02020035  RH  033%=      5-min Rain = 0
KBY1 151753Z 27017G23KT 20/04 A2994 RMK A01 T02040036  RH  033%=      5-min Rain = 0
KBY1 151754Z 27021KT 20/04 A2994 RMK A01 T02040035  RH  033%=      5-min Rain = 0
KBY1 151755Z 26019G26KT 21/04 A2994 RMK A01 T02050035  RH  033%=      5-min Rain = 0
KBY1 151756Z 25016G21KT 21/04 A2994 RMK A01 T02050035  RH  033%=      5-min Rain = 0
KBY1 151757Z 27025KT 21/03 A2994 RMK A01 T02050034  RH  032%=      5-min Rain = 0
KBY1 151758Z 26023G29KT 21/03 A2994 RMK A01 T02050034  RH  032%=      5-min Rain = 0
KBY1 151759Z 26023G30KT 20/03 A2993 RMK A01 T02030034  RH  033%=      5-min Rain = 0
KBY1 151800Z 26021KT 20/03 A2993 RMK A01 T02030033  RH  032%=      5-min Rain = 0
KBY1 151801Z 26019G27KT 20/03 A2993 RMK A01 T02020032  RH  032%=      5-min Rain = 0
KBY1 151802Z 26023G31KT 20/03 A2993 RMK A01 T02020031  RH  032%=      5-min Rain = 0
KBY1 151803Z 26021G26KT 20/03 A2993 RMK A01 T02020032  RH  032%=      5-min Rain = 0
KBY1 151804Z 26022KT 20/03 A2993 RMK A01 T02020033  RH  033%=      5-min Rain = 0
KBY1 151805Z 27020G25KT 20/03 A2993 RMK A01 T02030034  RH  033%=      5-min Rain = 0
KBY1 151806Z 26021G27KT 20/03 A2993 RMK A01 T02040034  RH  032%=      5-min Rain = 0
KBY1 151807Z 26024KT 20/04 A2993 RMK A01 T02040035  RH  033%=      5-min Rain = 0
KBY1 151808Z 27024G30KT 20/03 A2993 RMK A01 T02040034  RH  033%=      5-min Rain = 0
KBY1 151809Z 26023G30KT 20/04 A2993 RMK A01 T02020035  RH  033%=      5-min Rain = 0
KBY1 151810Z 26020G26KT 20/03 A2993 RMK A01 T02020034  RH  033%=      5-min Rain = 0
KBY1 151811Z 26019G24KT 20/04 A2993 RMK A01 T02020035  RH  033%=      5-min Rain = 0
KBY1 151812Z 26020G26KT 20/04 A2993 RMK A01 T02020036  RH  033%=      5-min Rain = 0
KBY1 151813Z 26019G24KT 20/04 A2993 RMK A01 T02020035  RH  033%=      5-min Rain = 0
KBY1 151814Z 26017G23KT 20/04 A2992 RMK A01 T02030035  RH  033%=      5-min Rain = 0
KBY1 151815Z 26016G23KT 21/04 A2992 RMK A01 T02050035  RH  033%=      5-min Rain = 0
KBY1 151816Z 26016G21KT 21/04 A2992 RMK A01 T02060036  RH  033%=      5-min Rain = 0
KBY1 151817Z 26022G29KT 21/04 A2992 RMK A01 T02080036  RH  032%=      5-min Rain = 0
KBY1 151818Z 26019G25KT 21/03 A2992 RMK A01 T02070034  RH  032%=      5-min Rain = 0
KBY1 151819Z 27022G27KT 21/04 A2992 RMK A01 T02060036  RH  033%=      5-min Rain = 0
KBY1 151820Z 26021KT 21/04 A2992 RMK A01 T02060037  RH  033%=      5-min Rain = 0
KBY1 151821Z 26023G29KT 21/04 A2992 RMK A01 T02060038  RH  033%=      5-min Rain = 0
KBY1 151822Z 25023G35KT 21/04 A2992 RMK A01 T02070040  RH  033%=      5-min Rain = 0
KBY1 151823Z 25027G32KT 21/04 A2992 RMK A01 T02070040  RH  033%=      5-min Rain = 0
KBY1 151824Z 25021G27KT 21/04 A2992 RMK A01 T02050039  RH  033%=      5-min Rain = 0
KBY1 151825Z 26021G26KT 21/04 A2992 RMK A01 T02050039  RH  033%=      5-min Rain = 0
KBY1 151826Z 26018G24KT 21/04 A2992 RMK A01 T02050039  RH  033%=      5-min Rain = 0
KBY1 151827Z 26024KT 21/04 A2992 RMK A01 T02050038  RH  033%=      5-min Rain = 0
KBY1 151828Z 26020G26KT 21/04 A2992 RMK A01 T02050038  RH  033%=      5-min Rain = 0
KBY1 151829Z 26022G28KT 21/04 A2992 RMK A01 T02060040  RH  034%=      5-min Rain = 0
KBY1 151830Z 26025G30KT 21/04 A2992 RMK A01 T02060041  RH  034%=      5-min Rain = 0
KBY1 151831Z 26021G29KT 21/04 A2992 RMK A01 T02050039  RH  033%=      5-min Rain = 0
KBY1 151832Z 25019G25KT 21/04 A2992 RMK A01 T02060039  RH  033%=      5-min Rain = 0
KBY1 151833Z 25022G28KT 21/04 A2992 RMK A01 T02060039  RH  033%=      5-min Rain = 0
KBY1 151834Z 25022KT 21/04 A2991 RMK A01 T02050041  RH  034%=      5-min Rain = 0
KBY1 151835Z 25023G29KT 21/04 A2991 RMK A01 T02050040  RH  034%=      5-min Rain = 0
KBY1 151836Z 25021KT 20/04 A2992 RMK A01 T02040040  RH  034%=      5-min Rain = 0
KBY1 151837Z 25024G29KT 20/04 A2992 RMK A01 T02040039  RH  034%=      5-min Rain = 0
KBY1 151838Z 25019G24KT 21/04 A2992 RMK A01 T02050038  RH  033%=      5-min Rain = 0
KBY1 151839Z 25019KT 20/04 A2992 RMK A01 T02040038  RH  033%=      5-min Rain = 0
KBY1 151840Z 25020KT 20/04 A2992 RMK A01 T02040037  RH  033%=      5-min Rain = 0
KBY1 151841Z 25019KT 20/04 A2992 RMK A01 T02040037  RH  033%=      5-min Rain = 0
KBY1 151842Z 25022KT 21/04 A2992 RMK A01 T02060038  RH  033%=      5-min Rain = 0
KBY1 151843Z 25025G33KT 21/04 A2992 RMK A01 T02070041  RH  034%=      5-min Rain = 0
KBY1 151844Z 25023G28KT 21/04 A2992 RMK A01 T02060043  RH  034%=      5-min Rain = 0
KBY1 151845Z 25024G30KT 21/04 A2992 RMK A01 T02060043  RH  034%=      5-min Rain = 0
KBY1 151846Z 25021G27KT 21/04 A2992 RMK A01 T02060044  RH  035%=      5-min Rain = 0
KBY1 151847Z 25023G29KT 21/04 A2992 RMK A01 T02070044  RH  034%=      5-min Rain = 0
KBY1 151848Z 25021G28KT 21/04 A2992 RMK A01 T02070043  RH  034%=      5-min Rain = 0
KBY1 151849Z 25026G31KT 21/04 A2991 RMK A01 T02070043  RH  034%=      5-min Rain = 0
KBY1 151850Z 25024G31KT 21/04 A2992 RMK A01 T02060041  RH  034%=      5-min Rain = 0
KBY1 151851Z 24022G27KT 21/04 A2992 RMK A01 T02070041  RH  034%=      5-min Rain = 0
KBY1 151852Z 25017KT 21/04 A2992 RMK A01 T02080043  RH  034%=      5-min Rain = 0
KBY1 151853Z 25021G28KT 21/04 A2992 RMK A01 T02090043  RH  034%=      5-min Rain = 0
KBY1 151854Z 26021G27KT 21/04 A2991 RMK A01 T02100044  RH  034%=      5-min Rain = 0
KBY1 151855Z 25020G29KT 21/04 A2992 RMK A01 T02090044  RH  034%=      5-min Rain = 0
KBY1 151856Z 25023G30KT 21/04 A2991 RMK A01 T02090044  RH  034%=      5-min Rain = 0
KBY1 151857Z 25020KT 21/04 A2992 RMK A01 T02070043  RH  034%=      5-min Rain = 0
KBY1 151858Z 25018G23KT 21/04 A2992 RMK A01 T02070043  RH  034%=      5-min Rain = 0
KBY1 151859Z 25022G27KT 21/04 A2992 RMK A01 T02090043  RH  034%=      5-min Rain = 0
KBY1 151900Z 25023KT 21/04 A2991 RMK A01 T02100044  RH  034%=      5-min Rain = 0
KBY1 151901Z 25019G25KT 21/04 A2992 RMK A01 T02100044  RH  034%=      5-min Rain = 0
KBY1 151902Z 25017G24KT 21/04 A2991 RMK A01 T02090043  RH  033%=      5-min Rain = 0
KBY1 151903Z 26017G24KT 21/04 A2991 RMK A01 T02090042  RH  033%=      5-min Rain = 0
KBY1 151904Z 26021G26KT 21/04 A2991 RMK A01 T02090042  RH  033%=      5-min Rain = 0
KBY1 151905Z 25016G24KT 21/04 A2991 RMK A01 T02090043  RH  034%=      5-min Rain = 0
KBY1 151906Z 27022KT 21/04 A2991 RMK A01 T02100043  RH  033%=      5-min Rain = 0
KBY1 151907Z 26027G34KT 21/04 A2991 RMK A01 T02100044  RH  034%=      5-min Rain = 0
KBY1 151908Z 26026G31KT 21/05 A2991 RMK A01 T02090045  RH  034%=      5-min Rain = 0
KBY1 151909Z 26024G32KT 21/05 A2991 RMK A01 T02080046  RH  035%=      5-min Rain = 0
KBY1 151910Z 26024G32KT 21/05 A2991 RMK A01 T02070046  RH  035%=      5-min Rain = 0
KBY1 151911Z 26024G31KT 21/04 A2991 RMK A01 T02070044  RH  034%=      5-min Rain = 0
KBY1 151912Z 25021G27KT 21/04 A2991 RMK A01 T02060043  RH  034%=      5-min Rain = 0
KBY1 151913Z 25025G32KT 21/04 A2991 RMK A01 T02060044  RH  034%=      5-min Rain = 0
KBY1 151914Z 25022G28KT 21/05 A2991 RMK A01 T02070045  RH  035%=      5-min Rain = 0
KBY1 151915Z 25021G26KT 21/05 A2991 RMK A01 T02060045  RH  035%=      5-min Rain = 0
KBY1 151916Z 25021G29KT 21/05 A2991 RMK A01 T02070046  RH  035%=      5-min Rain = 0
KBY1 151917Z 25022G28KT 21/05 A2991 RMK A01 T02090046  RH  034%=      5-min Rain = 0
KBY1 151918Z 25025G32KT 21/05 A299 RMK A01 T02100046  RH  034%=      5-min Rain = 0
KBY1 151919Z 25020G25KT 21/05 A299 RMK A01 T02090045  RH  034%=      5-min Rain = 0
KBY1 151920Z 25022G29KT 21/05 A299 RMK A01 T02100045  RH  034%=      5-min Rain = 0
KBY1 151921Z 25019KT 21/04 A299 RMK A01 T02110044  RH  033%=      5-min Rain = 0
KBY1 151922Z 25021G27KT 21/05 A299 RMK A01 T02120045  RH  033%=      5-min Rain = 0
KBY1 151923Z 25027G32KT 21/05 A299 RMK A01 T02130045  RH  033%=      5-min Rain = 0
KBY1 151924Z 24026G33KT 21/04 A299 RMK A01 T02100044  RH  033%=      5-min Rain = 0
KBY1 151925Z 24023G30KT 21/04 A299 RMK A01 T02100044  RH  034%=      5-min Rain = 0
KBY1 151926Z 24027KT 21/04 A299 RMK A01 T02100043  RH  033%=      5-min Rain = 0
KBY1 151927Z 24020G26KT 21/04 A299 RMK A01 T02100042  RH  033%=      5-min Rain = 0
KBY1 151928Z 24020G25KT 21/04 A299 RMK A01 T02110044  RH  033%=      5-min Rain = 0
KBY1 151929Z 26021G26KT 21/05 A299 RMK A01 T02130045  RH  033%=      5-min Rain = 0
KBY1 151930Z 25018G25KT 21/05 A2989 RMK A01 T02140045  RH  033%=      5-min Rain = 0
KBY1 151931Z 26024G30KT 22/05 A2989 RMK A01 T02150045  RH  033%=      5-min Rain = 0
KBY1 151932Z 24024G32KT 22/05 A2989 RMK A01 T02150047  RH  033%=      5-min Rain = 0
KBY1 151933Z 25023KT 22/05 A2989 RMK A01 T02150048  RH  034%=      5-min Rain = 0
KBY1 151934Z 26024G29KT 21/05 A2989 RMK A01 T02140047  RH  034%=      5-min Rain = 0
KBY1 151935Z 25023G30KT 21/05 A2989 RMK A01 T02120047  RH  034%=      5-min Rain = 0
KBY1 151936Z 25019G27KT 21/05 A2989 RMK A01 T02120047  RH  034%=      5-min Rain = 0
KBY1 151937Z 25020G32KT 21/05 A2989 RMK A01 T02120048  RH  034%=      5-min Rain = 0
KBY1 151938Z 26024G29KT 21/05 A2989 RMK A01 T02130047  RH  034%=      5-min Rain = 0
KBY1 151939Z 26022G28KT 21/05 A2989 RMK A01 T02100046  RH  034%=      5-min Rain = 0
KBY1 151940Z 25015G23KT 21/05 A2989 RMK A01 T02110048  RH  034%=      5-min Rain = 0
KBY1 151941Z 25022G29KT 22/05 A2989 RMK A01 T02150048  RH  034%=      5-min Rain = 0
KBY1 151942Z 27023G30KT 22/05 A2989 RMK A01 T02170047  RH  033%=      5-min Rain = 0
KBY1 151943Z 24022G31KT 22/05 A2989 RMK A01 T02160047  RH  033%=      5-min Rain = 0
KBY1 151944Z 24022G28KT 22/05 A2989 RMK A01 T02160047  RH  033%=      5-min Rain = 0
KBY1 151945Z 25025G33KT 22/05 A2989 RMK A01 T02180047  RH  033%=      5-min Rain = 0
KBY1 151946Z 25024G33KT 22/05 A2989 RMK A01 T02160046  RH  033%=      5-min Rain = 0
KBY1 151947Z 25021G30KT 21/05 A2989 RMK A01 T02140046  RH  033%=      5-min Rain = 0
KBY1 151948Z 25021G28KT 22/05 A2988 RMK A01 T02150047  RH  033%=      5-min Rain = 0
KBY1 151949Z 26022G29KT 22/05 A2988 RMK A01 T02170047  RH  033%=      5-min Rain = 0
KBY1 151950Z 25021G27KT 22/05 A2988 RMK A01 T02180048  RH  033%=      5-min Rain = 0
KBY1 151951Z 25021G35KT 22/05 A2988 RMK A01 T02200047  RH  032%=      5-min Rain = 0
KBY1 151952Z 25021G28KT 22/05 A2988 RMK A01 T02190046  RH  032%=      5-min Rain = 0
KBY1 151953Z 25025G31KT 22/05 A2988 RMK A01 T02180045  RH  032%=      5-min Rain = 0
KBY1 151954Z 25020G26KT 22/04 A2988 RMK A01 T02150044  RH  033%=      5-min Rain = 0
KBY1 151955Z 24019G24KT 22/05 A2988 RMK A01 T02160045  RH  033%=      5-min Rain = 0
KBY1 151956Z 24016G22KT 22/05 A2988 RMK A01 T02200047  RH  032%=      5-min Rain = 0
KBY1 151957Z 25020G29KT 22/05 A2988 RMK A01 T02240047  RH  032%=      5-min Rain = 0
KBY1 151958Z 24020G27KT 22/05 A2988 RMK A01 T02240047  RH  032%=      5-min Rain = 0
KBY1 151959Z 23024G29KT 22/05 A2987 RMK A01 T02230047  RH  032%=      5-min Rain = 0
KBY1 152000Z 24020G27KT 22/05 A2987 RMK A01 T02220048  RH  032%=      5-min Rain = 0
KBY1 152001Z 24025G32KT 22/05 A2987 RMK A01 T02230048  RH  032%=      5-min Rain = 0
KBY1 152002Z 25025G33KT 22/05 A2987 RMK A01 T02220047  RH  032%=      5-min Rain = 0
KBY1 152003Z 25024KT 22/05 A2987 RMK A01 T02210046  RH  032%=      5-min Rain = 0
KBY1 152004Z 24022G28KT 22/05 A2987 RMK A01 T02190046  RH  032%=      5-min Rain = 0
KBY1 152005Z 25022G30KT 22/05 A2987 RMK A01 T02180046  RH  032%=      5-min Rain = 0
KBY1 152006Z 26020G26KT 22/05 A2987 RMK A01 T02170047  RH  033%=      5-min Rain = 0
KBY1 152007Z 25023G29KT 22/05 A2987 RMK A01 T02170047  RH  033%=      5-min Rain = 0
KBY1 152008Z 25016G21KT 22/05 A2987 RMK A01 T02180047  RH  033%=      5-min Rain = 0
KBY1 152009Z 24018G23KT 22/05 A2987 RMK A01 T02180046  RH  033%=      5-min Rain = 0
KBY1 152010Z 25016G22KT 22/05 A2987 RMK A01 T02180046  RH  032%=      5-min Rain = 0
KBY1 152011Z 25019G25KT 22/05 A2987 RMK A01 T02190046  RH  032%=      5-min Rain = 0
KBY1 152012Z 26020G27KT 22/05 A2987 RMK A01 T02190046  RH  032%=      5-min Rain = 0
KBY1 152013Z 26021KT 22/05 A2987 RMK A01 T02190046  RH  032%=      5-min Rain = 0
KBY1 152014Z 26017G23KT 22/05 A2987 RMK A01 T02180046  RH  033%=      5-min Rain = 0
KBY1 152015Z 26020KT 22/05 A2987 RMK A01 T02170046  RH  033%=      5-min Rain = 0
KBY1 152016Z 26020G28KT 22/05 A2987 RMK A01 T02180046  RH  033%=      5-min Rain = 0
KBY1 152017Z 26021G27KT 22/05 A2987 RMK A01 T02170046  RH  033%=      5-min Rain = 0
KBY1 152018Z 25020G25KT 22/05 A2987 RMK A01 T02170046  RH  033%=      5-min Rain = 0
KBY1 152019Z 24022KT 22/05 A2987 RMK A01 T02190046  RH  032%=      5-min Rain = 0
KBY1 152020Z 25021G27KT 22/05 A2987 RMK A01 T02180046  RH  032%=      5-min Rain = 0
KBY1 152021Z 24022G27KT 22/05 A2987 RMK A01 T02170046  RH  033%=      5-min Rain = 0
KBY1 152022Z 25017G27KT 22/05 A2987 RMK A01 T02170047  RH  033%=      5-min Rain = 0
KBY1 152023Z 24029G34KT 22/05 A2986 RMK A01 T02180047  RH  033%=      5-min Rain = 0
KBY1 152024Z 24027G34KT 22/05 A2986 RMK A01 T02170048  RH  033%=      5-min Rain = 0
KBY1 152025Z 25023G33KT 22/05 A2987 RMK A01 T02180048  RH  033%=      5-min Rain = 0
KBY1 152026Z 26020G27KT 22/05 A2987 RMK A01 T02180049  RH  033%=      5-min Rain = 0
KBY1 152027Z 25023G30KT 22/05 A2987 RMK A01 T02180048  RH  033%=      5-min Rain = 0
KBY1 152028Z 25023G29KT 22/05 A2986 RMK A01 T02160048  RH  033%=      5-min Rain = 0
KBY1 152029Z 25018G24KT 21/05 A2987 RMK A01 T02140048  RH  034%=      5-min Rain = 0
KBY1 152030Z 26020G28KT 22/05 A2987 RMK A01 T02150049  RH  034%=      5-min Rain = 0
KBY1 152031Z 25019G26KT 22/05 A2987 RMK A01 T02170048  RH  033%=      5-min Rain = 0
KBY1 152032Z 26017KT 22/05 A2987 RMK A01 T02180049  RH  033%=      5-min Rain = 0
KBY1 152033Z 25020G26KT 22/05 A2987 RMK A01 T02200049  RH  033%=      5-min Rain = 0
KBY1 152034Z 25019G27KT 22/05 A2987 RMK A01 T02190048  RH  033%=      5-min Rain = 0
KBY1 152035Z 26019G24KT 22/05 A2987 RMK A01 T02190048  RH  033%=      5-min Rain = 0
KBY1 152036Z 25019G26KT 22/05 A2987 RMK A01 T02190048  RH  033%=      5-min Rain = 0
KBY1 152037Z 24019KT 22/05 A2987 RMK A01 T02210048  RH  032%=      5-min Rain = 0
KBY1 152038Z 24019KT 22/05 A2987 RMK A01 T02210049  RH  033%=      5-min Rain = 0
KBY1 152039Z 26014KT 22/05 A2987 RMK A01 T02200050  RH  033%=      5-min Rain = 0
KBY1 152040Z 25018G27KT 22/05 A2987 RMK A01 T02220051  RH  033%=      5-min Rain = 0
KBY1 152041Z 26024G32KT 22/05 A2986 RMK A01 T02220051  RH  033%=      5-min Rain = 0
KBY1 152042Z 26024G34KT 22/05 A2987 RMK A01 T02210050  RH  033%=      5-min Rain = 0
KBY1 152043Z 26023G31KT 22/05 A2987 RMK A01 T02190050  RH  033%=      5-min Rain = 0
KBY1 152044Z 25020G25KT 22/05 A2987 RMK A01 T02170050  RH  033%=      5-min Rain = 0
KBY1 152045Z 25022G29KT 22/05 A2987 RMK A01 T02180050  RH  034%=      5-min Rain = 0
KBY1 152046Z 24023G28KT 22/05 A2987 RMK A01 T02180050  RH  033%=      5-min Rain = 0
KBY1 152047Z 24028KT 22/05 A2986 RMK A01 T02180050  RH  033%=      5-min Rain = 0
KBY1 152048Z 25027G34KT 22/05 A2987 RMK A01 T02160048  RH  033%=      5-min Rain = 0
KBY1 152049Z 25023G30KT 21/05 A2987 RMK A01 T02130047  RH  034%=      5-min Rain = 0
KBY1 152050Z 25026G32KT 21/05 A2987 RMK A01 T02120048  RH  034%=      5-min Rain = 0
KBY1 152051Z 25025G32KT 21/05 A2987 RMK A01 T02110048  RH  034%=      5-min Rain = 0
KBY1 152052Z 25024G34KT 21/05 A2987 RMK A01 T02110048  RH  034%=      5-min Rain = 0
KBY1 152053Z 25023G30KT 21/05 A2987 RMK A01 T02110048  RH  034%=      5-min Rain = 0
KBY1 152054Z 25022G29KT 21/05 A2987 RMK A01 T02110049  RH  035%=      5-min Rain = 0
KBY1 152055Z 25029G35KT 21/05 A2987 RMK A01 T02130049  RH  034%=      5-min Rain = 0
KBY1 152056Z 25031G36KT 21/05 A2987 RMK A01 T02120049  RH  034%=      5-min Rain = 0
KBY1 152057Z 25029G36KT 21/05 A2987 RMK A01 T02120049  RH  034%=      5-min Rain = 0
KBY1 152058Z 24028G36KT 21/05 A2987 RMK A01 T02120049  RH  034%=      5-min Rain = 0
KBY1 152059Z 24025G31KT 21/05 A2987 RMK A01 T02110049  RH  035%=      5-min Rain = 0
KBY1 152100Z 24025KT 21/05 A2987 RMK A01 T02110048  RH  035%=      5-min Rain = 0
KBY1 152101Z 25024G33KT 21/05 A2988 RMK A01 T02110049  RH  034%=      5-min Rain = 0
KBY1 152102Z 24028G34KT 21/05 A2987 RMK A01 T02110048  RH  034%=      5-min Rain = 0
KBY1 152103Z 26028G38KT 21/05 A2987 RMK A01 T02100048  RH  035%=      5-min Rain = 0
KBY1 152104Z 25024KT 21/05 A2987 RMK A01 T02100048  RH  035%=      5-min Rain = 0
KBY1 152105Z 25022G31KT 21/05 A2987 RMK A01 T02090048  RH  035%=      5-min Rain = 0
KBY1 152106Z 24025G30KT 21/05 A2987 RMK A01 T02090048  RH  035%=      5-min Rain = 0
KBY1 152107Z 24021G27KT 21/05 A2988 RMK A01 T02080048  RH  035%=      5-min Rain = 0
KBY1 152108Z 24024G29KT 21/05 A2988 RMK A01 T02080047  RH  035%=      5-min Rain = 0
KBY1 152109Z 25019G26KT 21/05 A2988 RMK A01 T02090047  RH  035%=      5-min Rain = 0
KBY1 152110Z 25019KT 21/05 A2988 RMK A01 T02100048  RH  035%=      5-min Rain = 0
KBY1 152111Z 25017G23KT 21/05 A2988 RMK A01 T02120048  RH  034%=      5-min Rain = 0
KBY1 152112Z 25021G27KT 21/05 A2988 RMK A01 T02130048  RH  034%=      5-min Rain = 0
KBY1 152113Z 26021G31KT 21/05 A2987 RMK A01 T02140047  RH  034%=      5-min Rain = 0
KBY1 152114Z 26026G34KT 21/05 A2987 RMK A01 T02130047  RH  034%=      5-min Rain = 0
KBY1 152115Z 25023G29KT 21/05 A2987 RMK A01 T02120047  RH  034%=      5-min Rain = 0
KBY1 152116Z 25022G29KT 21/05 A2987 RMK A01 T02110048  RH  034%=      5-min Rain = 0
KBY1 152117Z 24022G28KT 21/05 A2987 RMK A01 T02110048  RH  034%=      5-min Rain = 0
KBY1 152118Z 24020G30KT 21/05 A2987 RMK A01 T02110048  RH  034%=      5-min Rain = 0
KBY1 152119Z 25022G31KT 21/05 A2988 RMK A01 T02110049  RH  034%=      5-min Rain = 0
KBY1 152120Z 25022G29KT 21/05 A2988 RMK A01 T02120048  RH  034%=      5-min Rain = 0
KBY1 152121Z 24020G25KT 21/05 A2988 RMK A01 T02100048  RH  035%=      5-min Rain = 0
KBY1 152122Z 24021G28KT 21/05 A2987 RMK A01 T02100048  RH  035%=      5-min Rain = 0
KBY1 152123Z 25018G28KT 21/05 A2988 RMK A01 T02100048  RH  035%=      5-min Rain = 0
KBY1 152124Z 26022KT 21/05 A2988 RMK A01 T02100048  RH  034%=      5-min Rain = 0
KBY1 152125Z 26021G26KT 21/05 A2988 RMK A01 T02090047  RH  035%=      5-min Rain = 0
KBY1 152126Z 26023G31KT 21/05 A2988 RMK A01 T02080047  RH  035%=      5-min Rain = 0
KBY1 152127Z 26021G27KT 21/05 A2988 RMK A01 T02080047  RH  035%=      5-min Rain = 0
KBY1 152128Z 26022G27KT 21/05 A2988 RMK A01 T02080048  RH  035%=      5-min Rain = 0
KBY1 152129Z 25016KT 21/05 A2988 RMK A01 T02080048  RH  035%=      5-min Rain = 0
KBY1 152130Z 25017G26KT 21/05 A2988 RMK A01 T02080048  RH  035%=      5-min Rain = 0
KBY1 152131Z 25018G24KT 21/05 A2988 RMK A01 T02090048  RH  035%=      5-min Rain = 0
KBY1 152132Z 24019KT 21/05 A2988 RMK A01 T02100049  RH  035%=      5-min Rain = 0
KBY1 152133Z 25022G29KT 21/05 A2988 RMK A01 T02100049  RH  035%=      5-min Rain = 0
KBY1 152134Z 24024G30KT 21/05 A2987 RMK A01 T02100048  RH  035%=      5-min Rain = 0
KBY1 152135Z 24022G27KT 21/05 A2987 RMK A01 T02100048  RH  035%=      5-min Rain = 0
KBY1 152136Z 24017G23KT 21/05 A2988 RMK A01 T02100048  RH  035%=      5-min Rain = 0
KBY1 152137Z 25017G25KT 21/05 A2988 RMK A01 T02130049  RH  034%=      5-min Rain = 0
KBY1 152138Z 25022G27KT 21/05 A2988 RMK A01 T02140048  RH  034%=      5-min Rain = 0
KBY1 152139Z 25018G25KT 22/05 A2988 RMK A01 T02150048  RH  034%=      5-min Rain = 0
KBY1 152140Z 25019G25KT 22/05 A2988 RMK A01 T02150048  RH  034%=      5-min Rain = 0
KBY1 152141Z 25023G29KT 21/05 A2988 RMK A01 T02140047  RH  034%=      5-min Rain = 0
KBY1 152142Z 24024KT 21/05 A2988 RMK A01 T02120047  RH  034%=      5-min Rain = 0
KBY1 152143Z 25019G27KT 21/05 A2988 RMK A01 T02100047  RH  034%=      5-min Rain = 0
KBY1 152144Z 25025G32KT 21/05 A2988 RMK A01 T02100047  RH  034%=      5-min Rain = 0
KBY1 152145Z 24020G27KT 21/05 A2988 RMK A01 T02090047  RH  035%=      5-min Rain = 0
KBY1 152146Z 24019G25KT 21/05 A2988 RMK A01 T02090048  RH  035%=      5-min Rain = 0
KBY1 152147Z 24019KT 21/05 A2988 RMK A01 T02120048  RH  034%=      5-min Rain = 0
KBY1 152148Z 25018KT 21/05 A2988 RMK A01 T02130048  RH  034%=      5-min Rain = 0
KBY1 152149Z 24021G27KT 22/05 A2988 RMK A01 T02150048  RH  033%=      5-min Rain = 0
KBY1 152150Z 25022G27KT 21/05 A2988 RMK A01 T02140047  RH  033%=      5-min Rain = 0
KBY1 152151Z 25022G28KT 21/05 A2988 RMK A01 T02130047  RH  034%=      5-min Rain = 0
KBY1 152152Z 25021KT 21/05 A2988 RMK A01 T02120046  RH  034%=      5-min Rain = 0
KBY1 152153Z 23017G25KT 21/05 A2988 RMK A01 T02120047  RH  034%=      5-min Rain = 0
KBY1 152154Z 23021KT 21/05 A2988 RMK A01 T02140048  RH  034%=      5-min Rain = 0
KBY1 152155Z 24016G21KT 21/05 A2987 RMK A01 T02140047  RH  034%=      5-min Rain = 0
KBY1 152156Z 24018G25KT 21/05 A2987 RMK A01 T02140048  RH  034%=      5-min Rain = 0
KBY1 152157Z 24019G24KT 21/05 A2987 RMK A01 T02140047  RH  034%=      5-min Rain = 0
KBY1 152158Z 25018KT 21/05 A2988 RMK A01 T02120047  RH  034%=      5-min Rain = 0
KBY1 152159Z 25015G23KT 21/05 A2988 RMK A01 T02110047  RH  034%=      5-min Rain = 0
KBY1 152200Z 25014KT 21/05 A2988 RMK A01 T02110047  RH  034%=      5-min Rain = 0
KBY1 152201Z 25017KT 21/05 A2987 RMK A01 T02120047  RH  034%=      5-min Rain = 0
KBY1 152202Z 25018KT 21/05 A2987 RMK A01 T02110047  RH  034%=      5-min Rain = 0
KBY1 152203Z 25013G18KT 21/05 A2988 RMK A01 T02100046  RH  034%=      5-min Rain = 0
KBY1 152204Z 25019G24KT 21/05 A2988 RMK A01 T02110047  RH  034%=      5-min Rain = 0
KBY1 152205Z 25017KT 21/05 A2988 RMK A01 T02110047  RH  034%=      5-min Rain = 0
KBY1 152206Z 25015G20KT 21/05 A2988 RMK A01 T02110048  RH  034%=      5-min Rain = 0
KBY1 152207Z 24020KT 21/05 A2988 RMK A01 T02100048  RH  035%=      5-min Rain = 0
KBY1 152208Z 24019G24KT 21/05 A2988 RMK A01 T02090048  RH  035%=      5-min Rain = 0
KBY1 152209Z 24017G24KT 21/05 A2988 RMK A01 T02090048  RH  035%=      5-min Rain = 0
KBY1 152210Z 24020KT 21/05 A2988 RMK A01 T02100049  RH  035%=      5-min Rain = 0
KBY1 152211Z 23016G23KT 21/05 A2988 RMK A01 T02100048  RH  035%=      5-min Rain = 0
KBY1 152212Z 23017KT 21/05 A2987 RMK A01 T02100049  RH  035%=      5-min Rain = 0
KBY1 152213Z 23016KT 21/05 A2988 RMK A01 T02110049  RH  035%=      5-min Rain = 0
KBY1 152214Z 23018KT 21/05 A2987 RMK A01 T02120049  RH  034%=      5-min Rain = 0
KBY1 152215Z 24016KT 21/05 A2987 RMK A01 T02120049  RH  034%=      5-min Rain = 0
KBY1 152216Z 23016KT 21/05 A2987 RMK A01 T02120049  RH  034%=      5-min Rain = 0
KBY1 152217Z 24017G24KT 21/05 A2987 RMK A01 T02130049  RH  034%=      5-min Rain = 0
KBY1 152218Z 23019G25KT 21/05 A2987 RMK A01 T02130049  RH  034%=      5-min Rain = 0
KBY1 152219Z 23016KT 21/05 A2987 RMK A01 T02120050  RH  035%=      5-min Rain = 0
KBY1 152220Z 23016KT 21/05 A2987 RMK A01 T02120050  RH  035%=      5-min Rain = 0
KBY1 152221Z 24015G21KT 21/05 A2987 RMK A01 T02110050  RH  035%=      5-min Rain = 0
KBY1 152222Z 25015KT 21/05 A2988 RMK A01 T02110050  RH  035%=      5-min Rain = 0
KBY1 152223Z 24017G24KT 21/05 A2988 RMK A01 T02110050  RH  035%=      5-min Rain = 0
KBY1 152224Z 24016KT 21/05 A2988 RMK A01 T02110050  RH  035%=      5-min Rain = 0
KBY1 152225Z 24015KT 21/05 A2988 RMK A01 T02110050  RH  035%=      5-min Rain = 0
KBY1 152226Z 24017KT 21/05 A2988 RMK A01 T02120050  RH  035%=      5-min Rain = 0
KBY1 152227Z 25014G19KT 21/05 A2988 RMK A01 T02120050  RH  035%=      5-min Rain = 0
KBY1 152228Z 26016G23KT 21/05 A2988 RMK A01 T02120050  RH  035%=      5-min Rain = 0
KBY1 152229Z 25020G25KT 21/05 A2988 RMK A01 T02130049  RH  034%=      5-min Rain = 0
KBY1 152230Z 24020G25KT 21/05 A2988 RMK A01 T02120049  RH  034%=      5-min Rain = 0
KBY1 152231Z 24022G27KT 21/05 A2988 RMK A01 T02120048  RH  034%=      5-min Rain = 0
KBY1 152232Z 24021KT 21/05 A2988 RMK A01 T02110048  RH  034%=      5-min Rain = 0
KBY1 152233Z 25019KT 21/05 A2988 RMK A01 T02100048  RH  035%=      5-min Rain = 0
KBY1 152234Z 24017KT 21/05 A2988 RMK A01 T02100048  RH  035%=      5-min Rain = 0
KBY1 152235Z 26017G22KT 21/05 A2988 RMK A01 T02110047  RH  034%=      5-min Rain = 0
KBY1 152236Z 25021KT 21/05 A2988 RMK A01 T02110047  RH  034%=      5-min Rain = 0
KBY1 152237Z 25019G27KT 21/05 A2988 RMK A01 T02110047  RH  034%=      5-min Rain = 0
KBY1 152238Z 24021KT 21/05 A2988 RMK A01 T02100047  RH  034%=      5-min Rain = 0
KBY1 152239Z 24022G29KT 21/05 A2988 RMK A01 T02100046  RH  034%=      5-min Rain = 0
KBY1 152240Z 24019G25KT 21/05 A2988 RMK A01 T02100046  RH  034%=      5-min Rain = 0
KBY1 152241Z 24016KT 21/05 A2988 RMK A01 T02100046  RH  034%=      5-min Rain = 0
KBY1 152242Z 24019G25KT 21/05 A2988 RMK A01 T02100046  RH  034%=      5-min Rain = 0
KBY1 152243Z 24018KT 21/05 A2988 RMK A01 T02100046  RH  034%=      5-min Rain = 0
KBY1 152244Z 25014KT 21/05 A2988 RMK A01 T02100046  RH  034%=      5-min Rain = 0
KBY1 152245Z 24015G20KT 21/05 A2988 RMK A01 T02100045  RH  034%=      5-min Rain = 0
KBY1 152246Z 25015G22KT 21/05 A2988 RMK A01 T02100045  RH  034%=      5-min Rain = 0
KBY1 152247Z 24019KT 21/04 A2988 RMK A01 T02100044  RH  034%=      5-min Rain = 0
KBY1 152248Z 24018KT 21/04 A2988 RMK A01 T02090043  RH  034%=      5-min Rain = 0
KBY1 152249Z 25018KT 21/04 A2988 RMK A01 T02090042  RH  033%=      5-min Rain = 0
KBY1 152250Z 25020KT 21/04 A2988 RMK A01 T02080041  RH  033%=      5-min Rain = 0
KBY1 152251Z 25018KT 21/04 A2988 RMK A01 T02080041  RH  033%=      5-min Rain = 0
KBY1 152252Z 25014G22KT 21/04 A2988 RMK A01 T02080041  RH  033%=      5-min Rain = 0
KBY1 152253Z 26013G18KT 21/04 A2988 RMK A01 T02080041  RH  033%=      5-min Rain = 0
KBY1 152254Z 26016G22KT 21/04 A2988 RMK A01 T02090041  RH  033%=      5-min Rain = 0
KBY1 152255Z 27015KT 21/04 A2988 RMK A01 T02090040  RH  033%=      5-min Rain = 0
KBY1 152256Z 26014G19KT 21/04 A2988 RMK A01 T02090040  RH  033%=      5-min Rain = 0
KBY1 152257Z 26018KT 21/04 A2988 RMK A01 T02090040  RH  033%=      5-min Rain = 0
KBY1 152258Z 25014KT 21/04 A2988 RMK A01 T02090041  RH  033%=      5-min Rain = 0
KBY1 152259Z 26012KT 21/04 A2988 RMK A01 T02090041  RH  033%=      5-min Rain = 0
KBY1 152300Z 26014G22KT 21/04 A2988 RMK A01 T02090041  RH  033%=      5-min Rain = 0
KBY1 152301Z 25020G25KT 21/04 A2988 RMK A01 T02090041  RH  033%=      5-min Rain = 0
KBY1 152302Z 26015G21KT 21/04 A2988 RMK A01 T02080040  RH  033%=      5-min Rain = 0
KBY1 152303Z 25014KT 21/04 A2988 RMK A01 T02080040  RH  033%=      5-min Rain = 0
KBY1 152304Z 25014KT 21/04 A2988 RMK A01 T02080040  RH  033%=      5-min Rain = 0
KBY1 152305Z 25017G22KT 21/04 A2988 RMK A01 T02080041  RH  033%=      5-min Rain = 0
KBY1 152306Z 25017G22KT 21/04 A2988 RMK A01 T02080041  RH  033%=      5-min Rain = 0
KBY1 152307Z 26017G24KT 21/04 A2988 RMK A01 T02070040  RH  033%=      5-min Rain = 0
KBY1 152308Z 26016G21KT 21/04 A2988 RMK A01 T02070040  RH  033%=      5-min Rain = 0
KBY1 152309Z 26016G22KT 21/04 A2988 RMK A01 T02070041  RH  033%=      5-min Rain = 0
KBY1 152310Z 25014KT 21/04 A2988 RMK A01 T02070041  RH  034%=      5-min Rain = 0
KBY1 152311Z 25013KT 21/04 A2988 RMK A01 T02070041  RH  034%=      5-min Rain = 0
KBY1 152312Z 25016G23KT 21/04 A2988 RMK A01 T02060041  RH  034%=      5-min Rain = 0
KBY1 152313Z 24018KT 21/04 A2988 RMK A01 T02070041  RH  034%=      5-min Rain = 0
KBY1 152314Z 24021KT 21/04 A2988 RMK A01 T02060041  RH  034%=      5-min Rain = 0
KBY1 152315Z 25019G24KT 21/04 A2988 RMK A01 T02060042  RH  034%=      5-min Rain = 0
KBY1 152316Z 25021G26KT 21/04 A2988 RMK A01 T02060042  RH  034%=      5-min Rain = 0
KBY1 152317Z 24017G22KT 21/04 A2988 RMK A01 T02060042  RH  034%=      5-min Rain = 0
KBY1 152318Z 25021KT 21/04 A2988 RMK A01 T02060042  RH  034%=      5-min Rain = 0
KBY1 152319Z 24019G24KT 21/04 A2988 RMK A01 T02060041  RH  034%=      5-min Rain = 0
KBY1 152320Z 24014KT 21/04 A2988 RMK A01 T02070042  RH  034%=      5-min Rain = 0
KBY1 152321Z 23016KT 21/04 A2988 RMK A01 T02070042  RH  034%=      5-min Rain = 0
KBY1 152322Z 25015G22KT 21/04 A2988 RMK A01 T02070042  RH  034%=      5-min Rain = 0
KBY1 152323Z 25024G29KT 21/04 A2988 RMK A01 T02070041  RH  034%=      5-min Rain = 0
KBY1 152324Z 25022G27KT 21/04 A2988 RMK A01 T02070040  RH  033%=      5-min Rain = 0
KBY1 152325Z 25026KT 21/04 A2988 RMK A01 T02070040  RH  033%=      5-min Rain = 0
KBY1 152326Z 25023KT 21/04 A2988 RMK A01 T02070039  RH  033%=      5-min Rain = 0
KBY1 152327Z 25016G21KT 21/04 A2988 RMK A01 T02070040  RH  033%=      5-min Rain = 0
KBY1 152328Z 26012KT 21/04 A2988 RMK A01 T02070039  RH  033%=      5-min Rain = 0
KBY1 152329Z 24020G27KT 21/04 A2988 RMK A01 T02070039  RH  033%=      5-min Rain = 0
KBY1 152330Z 25025G30KT 21/04 A2988 RMK A01 T02060039  RH  033%=      5-min Rain = 0
KBY1 152331Z 25024G29KT 21/04 A2988 RMK A01 T02060039  RH  033%=      5-min Rain = 0
KBY1 152332Z 25020KT 21/04 A2988 RMK A01 T02050038  RH  033%=      5-min Rain = 0
KBY1 152333Z 25017G22KT 21/04 A2988 RMK A01 T02050038  RH  033%=      5-min Rain = 0
KBY1 152334Z 24016G21KT 21/04 A2988 RMK A01 T02050038  RH  033%=      5-min Rain = 0
KBY1 152335Z 24016KT 20/04 A2988 RMK A01 T02040038  RH  033%=      5-min Rain = 0
KBY1 152336Z 24016G21KT 20/04 A2988 RMK A01 T02040038  RH  033%=      5-min Rain = 0
KBY1 152337Z 24015KT 20/04 A2988 RMK A01 T02040038  RH  033%=      5-min Rain = 0
KBY1 152338Z 24014G21KT 21/04 A2988 RMK A01 T02050038  RH  033%=      5-min Rain = 0
KBY1 152339Z 24014KT 21/04 A2988 RMK A01 T02050038  RH  033%=      5-min Rain = 0
KBY1 152340Z 24016G22KT 21/04 A2988 RMK A01 T02050038  RH  033%=      5-min Rain = 0
KBY1 152341Z 25016G23KT 21/04 A2988 RMK A01 T02050038  RH  033%=      5-min Rain = 0
KBY1 152342Z 24022KT 20/04 A2988 RMK A01 T02040038  RH  033%=      5-min Rain = 0
KBY1 152343Z 24020G26KT 20/04 A2988 RMK A01 T02040037  RH  033%=      5-min Rain = 0
KBY1 152344Z 25017KT 20/04 A2988 RMK A01 T02040037  RH  033%=      5-min Rain = 0
KBY1 152345Z 25019KT 20/04 A2988 RMK A01 T02040037  RH  033%=      5-min Rain = 0
KBY1 152346Z 25020G28KT 20/04 A2988 RMK A01 T02040037  RH  033%=      5-min Rain = 0
KBY1 152347Z 24021G26KT 20/04 A2988 RMK A01 T02040036  RH  033%=      5-min Rain = 0
KBY1 152348Z 24016G22KT 21/04 A2987 RMK A01 T02050036  RH  033%=      5-min Rain = 0
KBY1 152349Z 25023G28KT 20/04 A2987 RMK A01 T02040036  RH  033%=      5-min Rain = 0
KBY1 152350Z 25019KT 21/04 A2987 RMK A01 T02050036  RH  033%=      5-min Rain = 0
KBY1 152351Z 25018KT 20/04 A2987 RMK A01 T02040036  RH  033%=      5-min Rain = 0
KBY1 152352Z 24014KT 20/04 A2987 RMK A01 T02040036  RH  033%=      5-min Rain = 0
KBY1 152353Z 24019KT 20/04 A2987 RMK A01 T02040036  RH  033%=      5-min Rain = 0
KBY1 152354Z 24016KT 21/04 A2987 RMK A01 T02050036  RH  033%=      5-min Rain = 0
KBY1 152355Z 25014G20KT 21/04 A2988 RMK A01 T02050036  RH  033%=      5-min Rain = 0
KBY1 152356Z 25014G20KT 21/04 A2988 RMK A01 T02050036  RH  033%=      5-min Rain = 0
KBY1 152357Z 25016KT 20/04 A2988 RMK A01 T02040035  RH  033%=      5-min Rain = 0
KBY1 152358Z 24017G24KT 20/04 A2988 RMK A01 T02040035  RH  033%=      5-min Rain = 0
KBY1 152359Z 23017G25KT 20/04 A2988 RMK A01 T02030035  RH  033%=      5-min Rain = 0
KBY1 160000Z 24015G22KT 20/04 A2988 RMK A01 T02030035  RH  033%=      5-min Rain = 0
KBY1 160001Z 24018KT 20/04 A2988 RMK A01 T02030036  RH  033%=      5-min Rain = 0
KBY1 160002Z 24017KT 20/04 A2988 RMK A01 T02020036  RH  033%=      5-min Rain = 0
KBY1 160003Z 24016G21KT 20/04 A2988 RMK A01 T02020036  RH  033%=      5-min Rain = 0
KBY1 160004Z 24017KT 20/04 A2988 RMK A01 T02010035  RH  033%=      5-min Rain = 0
KBY1 160005Z 24017G24KT 20/04 A2988 RMK A01 T02010035  RH  033%=      5-min Rain = 0
KBY1 160006Z 24016G24KT 20/03 A2988 RMK A01 T02010034  RH  033%=      5-min Rain = 0
KBY1 160007Z 24016KT 20/03 A2988 RMK A01 T02000034  RH  033%=      5-min Rain = 0
KBY1 160008Z 24022G27KT 20/03 A2988 RMK A01 T02000033  RH  033%=      5-min Rain = 0
KBY1 160009Z 25017KT 20/03 A2988 RMK A01 T02000031  RH  033%=      5-min Rain = 0
KBY1 160010Z 25018KT 20/03 A2988 RMK A01 T01990031  RH  033%=      5-min Rain = 0
KBY1 160011Z 25018KT 20/03 A2988 RMK A01 T01990031  RH  033%=      5-min Rain = 0
KBY1 160012Z 24016KT 20/03 A2988 RMK A01 T01990031  RH  033%=      5-min Rain = 0
KBY1 160013Z 25018G24KT 20/03 A2988 RMK A01 T01980031  RH  033%=      5-min Rain = 0
KBY1 160014Z 25019G24KT 20/03 A2988 RMK A01 T01980031  RH  033%=      5-min Rain = 0
KBY1 160015Z 25018KT 20/03 A2988 RMK A01 T01970031  RH  033%=      5-min Rain = 0
KBY1 160016Z 25019KT 20/03 A2988 RMK A01 T01970030  RH  033%=      5-min Rain = 0
KBY1 160017Z 24016KT 20/03 A2988 RMK A01 T01970029  RH  033%=      5-min Rain = 0
KBY1 160018Z 24017KT 20/03 A2988 RMK A01 T01960029  RH  033%=      5-min Rain = 0
KBY1 160019Z 25015G21KT 20/03 A2988 RMK A01 T01960029  RH  033%=      5-min Rain = 0
KBY1 160020Z 25016KT 20/03 A2988 RMK A01 T01950028  RH  033%=      5-min Rain = 0
KBY1 160021Z 25016G23KT 20/03 A2988 RMK A01 T01950029  RH  033%=      5-min Rain = 0
KBY1 160022Z 25016KT 20/03 A2988 RMK A01 T01950030  RH  033%=      5-min Rain = 0
KBY1 160023Z 25012KT 19/03 A2988 RMK A01 T01940029  RH  033%=      5-min Rain = 0
KBY1 160024Z 24014KT 19/03 A2988 RMK A01 T01940030  RH  034%=      5-min Rain = 0
KBY1 160025Z 24014G21KT 19/03 A2988 RMK A01 T01930029  RH  034%=      5-min Rain = 0
KBY1 160026Z 24018G23KT 19/03 A2988 RMK A01 T01930029  RH  034%=      5-min Rain = 0
KBY1 160027Z 24018G24KT 19/03 A2988 RMK A01 T01930030  RH  034%=      5-min Rain = 0
KBY1 160028Z 25012KT 19/03 A2989 RMK A01 T01930029  RH  034%=      5-min Rain = 0
KBY1 160029Z 25016KT 19/03 A2989 RMK A01 T01930029  RH  034%=      5-min Rain = 0
KBY1 160030Z 25018KT 19/03 A2988 RMK A01 T01920029  RH  034%=      5-min Rain = 0
KBY1 160031Z 25016KT 19/03 A2989 RMK A01 T01920029  RH  034%=      5-min Rain = 0
KBY1 160032Z 25017KT 19/03 A2989 RMK A01 T01920029  RH  034%=      5-min Rain = 0
KBY1 160033Z 25018KT 19/03 A2989 RMK A01 T01920029  RH  034%=      5-min Rain = 0
KBY1 160034Z 25015KT 19/03 A2989 RMK A01 T01920029  RH  034%=      5-min Rain = 0
KBY1 160035Z 25018KT 19/03 A2989 RMK A01 T01920029  RH  034%=      5-min Rain = 0
KBY1 160036Z 24015G22KT 19/03 A2989 RMK A01 T01920029  RH  034%=      5-min Rain = 0
KBY1 160037Z 24018G25KT 19/03 A2989 RMK A01 T01910029  RH  034%=      5-min Rain = 0
KBY1 160038Z 25015G20KT 19/03 A2989 RMK A01 T01910029  RH  034%=      5-min Rain = 0
KBY1 160039Z 25016KT 19/03 A2989 RMK A01 T01910028  RH  034%=      5-min Rain = 0
KBY1 160040Z 25016KT 19/03 A2989 RMK A01 T01910029  RH  034%=      5-min Rain = 0
KBY1 160041Z 25016KT 19/03 A2989 RMK A01 T01900028  RH  034%=      5-min Rain = 0
KBY1 160042Z 25015KT 19/03 A299 RMK A01 T01900028  RH  034%=      5-min Rain = 0
KBY1 160043Z 25015KT 19/03 A299 RMK A01 T01900028  RH  034%=      5-min Rain = 0
KBY1 160044Z 25016KT 19/03 A299 RMK A01 T01900028  RH  034%=      5-min Rain = 0
KBY1 160045Z 25015KT 19/03 A299 RMK A01 T01890028  RH  034%=      5-min Rain = 0
KBY1 160046Z 25015KT 19/03 A299 RMK A01 T01890028  RH  034%=      5-min Rain = 0
KBY1 160047Z 25013KT 19/03 A299 RMK A01 T01890028  RH  034%=      5-min Rain = 0
KBY1 160048Z 25015KT 19/03 A299 RMK A01 T01880028  RH  034%=      5-min Rain = 0
KBY1 160049Z 24015KT 19/03 A299 RMK A01 T01880028  RH  034%=      5-min Rain = 0
KBY1 160050Z 25017KT 19/03 A299 RMK A01 T01880028  RH  035%=      5-min Rain = 0
KBY1 160051Z 25017KT 19/03 A299 RMK A01 T01880028  RH  034%=      5-min Rain = 0
KBY1 160052Z 26016KT 19/03 A299 RMK A01 T01880028  RH  034%=      5-min Rain = 0
KBY1 160053Z 25015G22KT 19/03 A299 RMK A01 T01880028  RH  034%=      5-min Rain = 0
KBY1 160054Z 25016KT 19/03 A299 RMK A01 T01870028  RH  035%=      5-min Rain = 0
KBY1 160055Z 25016G23KT 19/03 A299 RMK A01 T01870028  RH  035%=      5-min Rain = 0
KBY1 160056Z 25016G21KT 19/03 A299 RMK A01 T01870027  RH  035%=      5-min Rain = 0
KBY1 160057Z 25018G23KT 19/03 A299 RMK A01 T01870028  RH  035%=      5-min Rain = 0
KBY1 160058Z 25014G19KT 19/03 A299 RMK A01 T01870028  RH  035%=      5-min Rain = 0
KBY1 160059Z 25019G25KT 19/03 A299 RMK A01 T01870028  RH  035%=      5-min Rain = 0
KBY1 160100Z 25016KT 19/03 A299 RMK A01 T01870028  RH  035%=      5-min Rain = 0
KBY1 160101Z 25014G19KT 19/03 A299 RMK A01 T01870028  RH  035%=      5-min Rain = 0
KBY1 160102Z 25017G23KT 19/03 A299 RMK A01 T01860027  RH  035%=      5-min Rain = 0
KBY1 160103Z 26019G24KT 19/03 A299 RMK A01 T01850027  RH  035%=      5-min Rain = 0
KBY1 160104Z 25014KT 19/03 A299 RMK A01 T01850028  RH  035%=      5-min Rain = 0
KBY1 160105Z 25015KT 19/03 A299 RMK A01 T01850027  RH  035%=      5-min Rain = 0
KBY1 160106Z 25014KT 18/03 A299 RMK A01 T01840027  RH  035%=      5-min Rain = 0
KBY1 160107Z 24012KT 18/03 A299 RMK A01 T01840028  RH  035%=      5-min Rain = 0
KBY1 160108Z 25013KT 18/03 A299 RMK A01 T01830028  RH  035%=      5-min Rain = 0
KBY1 160109Z 25012KT 18/03 A299 RMK A01 T01820028  RH  036%=      5-min Rain = 0
KBY1 160110Z 25015G20KT 18/03 A299 RMK A01 T01820027  RH  036%=      5-min Rain = 0
KBY1 160111Z 26015KT 18/03 A299 RMK A01 T01820027  RH  036%=      5-min Rain = 0
KBY1 160112Z 25013G18KT 18/03 A299 RMK A01 T01830027  RH  035%=      5-min Rain = 0
KBY1 160113Z 25011KT 18/03 A299 RMK A01 T01830027  RH  035%=      5-min Rain = 0
KBY1 160114Z 25014G19KT 18/03 A299 RMK A01 T01820027  RH  035%=      5-min Rain = 0
KBY1 160115Z 25015KT 18/03 A299 RMK A01 T01820027  RH  036%=      5-min Rain = 0
KBY1 160116Z 25014G21KT 18/03 A299 RMK A01 T01820027  RH  036%=      5-min Rain = 0
KBY1 160117Z 25015G20KT 18/03 A299 RMK A01 T01810027  RH  036%=      5-min Rain = 0
KBY1 160118Z 26014G19KT 18/03 A299 RMK A01 T01810027  RH  036%=      5-min Rain = 0
KBY1 160119Z 26011KT 18/03 A299 RMK A01 T01810027  RH  036%=      5-min Rain = 0
KBY1 160120Z 26011KT 18/03 A299 RMK A01 T01800026  RH  036%=      5-min Rain = 0
KBY1 160121Z 26011KT 18/03 A2991 RMK A01 T01800026  RH  036%=      5-min Rain = 0
KBY1 160122Z 26012KT 18/03 A2991 RMK A01 T01790026  RH  036%=      5-min Rain = 0
KBY1 160123Z 26011KT 18/03 A2991 RMK A01 T01780026  RH  036%=      5-min Rain = 0
KBY1 160124Z 26011KT 18/03 A2991 RMK A01 T01780026  RH  036%=      5-min Rain = 0
KBY1 160125Z 26011KT 18/03 A2991 RMK A01 T01780026  RH  036%=      5-min Rain = 0
KBY1 160126Z 27011KT 18/03 A2991 RMK A01 T01780026  RH  036%=      5-min Rain = 0
KBY1 160127Z 27010KT 18/03 A2991 RMK A01 T01770026  RH  036%=      5-min Rain = 0
KBY1 160128Z 27012KT 18/03 A2991 RMK A01 T01770026  RH  036%=      5-min Rain = 0
KBY1 160129Z 27012KT 18/03 A2991 RMK A01 T01770026  RH  036%=      5-min Rain = 0
KBY1 160130Z 26014KT 18/03 A2991 RMK A01 T01770026  RH  036%=      5-min Rain = 0
KBY1 160131Z 27010KT 18/03 A2992 RMK A01 T01770025  RH  036%=      5-min Rain = 0
KBY1 160132Z 27013KT 18/03 A2992 RMK A01 T01770025  RH  036%=      5-min Rain = 0
KBY1 160133Z 27013KT 18/03 A2992 RMK A01 T01770025  RH  036%=      5-min Rain = 0
KBY1 160134Z 27011KT 18/03 A2992 RMK A01 T01770025  RH  036%=      5-min Rain = 0
KBY1 160135Z 27009KT 18/03 A2992 RMK A01 T01770025  RH  036%=      5-min Rain = 0
KBY1 160136Z 27009KT 18/03 A2992 RMK A01 T01770025  RH  036%=      5-min Rain = 0
KBY1 160137Z 27008KT 18/02 A2992 RMK A01 T01760024  RH  036%=      5-min Rain = 0
KBY1 160138Z 27007KT 18/02 A2992 RMK A01 T01750024  RH  036%=      5-min Rain = 0
KBY1 160139Z 27009KT 17/02 A2993 RMK A01 T01740024  RH  036%=      5-min Rain = 0
KBY1 160140Z 27009KT 17/02 A2993 RMK A01 T01740023  RH  036%=      5-min Rain = 0
KBY1 160141Z 27008KT 17/02 A2993 RMK A01 T01740024  RH  037%=      5-min Rain = 0
KBY1 160142Z 27008KT 17/02 A2993 RMK A01 T01730023  RH  037%=      5-min Rain = 0
KBY1 160143Z 27007KT 17/02 A2993 RMK A01 T01730023  RH  037%=      5-min Rain = 0
KBY1 160144Z 27009KT 17/02 A2993 RMK A01 T01730023  RH  037%=      5-min Rain = 0
KBY1 160145Z 26008KT 17/02 A2993 RMK A01 T01730023  RH  037%=      5-min Rain = 0
KBY1 160146Z 27008KT 17/02 A2993 RMK A01 T01730023  RH  037%=      5-min Rain = 0
KBY1 160147Z 27009KT 17/02 A2994 RMK A01 T01720023  RH  037%=      5-min Rain = 0
KBY1 160148Z 27007KT 17/02 A2994 RMK A01 T01730023  RH  037%=      5-min Rain = 0
KBY1 160149Z 26010KT 17/02 A2994 RMK A01 T01720023  RH  037%=      5-min Rain = 0
KBY1 160150Z 27008KT 17/02 A2994 RMK A01 T01720022  RH  037%=      5-min Rain = 0
KBY1 160151Z 27008KT 17/02 A2994 RMK A01 T01720022  RH  037%=      5-min Rain = 0
KBY1 160152Z 27007KT 17/02 A2994 RMK A01 T01720022  RH  036%=      5-min Rain = 0
KBY1 160153Z 27011KT 17/02 A2994 RMK A01 T01720022  RH  036%=      5-min Rain = 0
KBY1 160154Z 27010KT 17/02 A2994 RMK A01 T01730022  RH  036%=      5-min Rain = 0
KBY1 160155Z 27010KT 17/02 A2994 RMK A01 T01730022  RH  036%=      5-min Rain = 0
KBY1 160156Z 27008KT 17/02 A2994 RMK A01 T01730022  RH  036%=      5-min Rain = 0
KBY1 160157Z 27007KT 17/02 A2995 RMK A01 T01730022  RH  036%=      5-min Rain = 0
KBY1 160158Z 27010KT 17/02 A2995 RMK A01 T01720021  RH  036%=      5-min Rain = 0
KBY1 160159Z 27009KT 17/02 A2995 RMK A01 T01720022  RH  036%=      5-min Rain = 0
KBY1 160200Z 27007KT 17/02 A2995 RMK A01 T01720022  RH  036%=      5-min Rain = 0
KBY1 160201Z 27008KT 17/02 A2995 RMK A01 T01720021  RH  036%=      5-min Rain = 0
KBY1 160202Z 27008KT 17/02 A2995 RMK A01 T01710021  RH  037%=      5-min Rain = 0
KBY1 160203Z 26008KT 17/02 A2995 RMK A01 T01700021  RH  037%=      5-min Rain = 0
KBY1 160204Z 26009KT 17/02 A2995 RMK A01 T01690021  RH  037%=      5-min Rain = 0
KBY1 160205Z 26010KT 17/02 A2995 RMK A01 T01690021  RH  037%=      5-min Rain = 0
KBY1 160206Z 26008KT 17/02 A2995 RMK A01 T01700021  RH  037%=      5-min Rain = 0
KBY1 160207Z 26007KT 17/02 A2995 RMK A01 T01700021  RH  037%=      5-min Rain = 0
KBY1 160208Z 26007KT 17/02 A2995 RMK A01 T01690021  RH  037%=      5-min Rain = 0
KBY1 160209Z 26008KT 17/02 A2995 RMK A01 T01690020  RH  037%=      5-min Rain = 0
KBY1 160210Z 26008KT 17/02 A2995 RMK A01 T01680020  RH  037%=      5-min Rain = 0
KBY1 160211Z 26008KT 17/02 A2995 RMK A01 T01680020  RH  037%=      5-min Rain = 0
KBY1 160212Z 26009KT 17/02 A2995 RMK A01 T01680020  RH  037%=      5-min Rain = 0
KBY1 160213Z 27010KT 17/02 A2995 RMK A01 T01680020  RH  037%=      5-min Rain = 0
KBY1 160214Z 26011KT 17/02 A2995 RMK A01 T01680020  RH  037%=      5-min Rain = 0
KBY1 160215Z 26011KT 17/02 A2995 RMK A01 T01690020  RH  037%=      5-min Rain = 0
KBY1 160216Z 25008KT 17/02 A2995 RMK A01 T01700020  RH  037%=      5-min Rain = 0
KBY1 160217Z 25008KT 17/02 A2995 RMK A01 T01690020  RH  037%=      5-min Rain = 0
KBY1 160218Z 26011KT 17/02 A2995 RMK A01 T01680019  RH  037%=      5-min Rain = 0
KBY1 160219Z 25012KT 17/02 A2995 RMK A01 T01680020  RH  037%=      5-min Rain = 0
KBY1 160220Z 25012G17KT 17/02 A2995 RMK A01 T01680019  RH  037%=      5-min Rain = 0
KBY1 160221Z 25009KT 17/02 A2995 RMK A01 T01690019  RH  037%=      5-min Rain = 0
KBY1 160222Z 25010G15KT 17/02 A2995 RMK A01 T01680019  RH  037%=      5-min Rain = 0
KBY1 160223Z 25012KT 17/02 A2995 RMK A01 T01680019  RH  037%=      5-min Rain = 0
KBY1 160224Z 25011KT 17/02 A2995 RMK A01 T01680020  RH  037%=      5-min Rain = 0
KBY1 160225Z 26011KT 17/02 A2995 RMK A01 T01680019  RH  037%=      5-min Rain = 0
KBY1 160226Z 26011KT 17/02 A2996 RMK A01 T01680019  RH  037%=      5-min Rain = 0
KBY1 160227Z 26010KT 17/02 A2996 RMK A01 T01680020  RH  037%=      5-min Rain = 0
KBY1 160228Z 27010KT 17/02 A2996 RMK A01 T01670019  RH  037%=      5-min Rain = 0
KBY1 160229Z 26010G15KT 17/02 A2996 RMK A01 T01670019  RH  037%=      5-min Rain = 0
KBY1 160230Z 26012KT 17/02 A2996 RMK A01 T01670019  RH  037%=      5-min Rain = 0
KBY1 160231Z 26010KT 17/02 A2996 RMK A01 T01660019  RH  037%=      5-min Rain = 0
KBY1 160232Z 26009KT 17/02 A2996 RMK A01 T01660019  RH  037%=      5-min Rain = 0
KBY1 160233Z 26009KT 17/02 A2996 RMK A01 T01660019  RH  037%=      5-min Rain = 0
KBY1 160234Z 26007KT 17/02 A2996 RMK A01 T01660019  RH  037%=      5-min Rain = 0
KBY1 160235Z 27007G12KT 17/02 A2996 RMK A01 T01650019  RH  037%=      5-min Rain = 0
KBY1 160236Z 26009KT 17/02 A2996 RMK A01 T01650018  RH  037%=      5-min Rain = 0
KBY1 160237Z 25009KT 16/02 A2996 RMK A01 T01640018  RH  037%=      5-min Rain = 0
KBY1 160238Z 26010KT 17/02 A2996 RMK A01 T01650018  RH  037%=      5-min Rain = 0
KBY1 160239Z 26009KT 17/02 A2996 RMK A01 T01650018  RH  037%=      5-min Rain = 0
KBY1 160240Z 26010KT 17/02 A2996 RMK A01 T01650018  RH  037%=      5-min Rain = 0
KBY1 160241Z 26008KT 17/02 A2996 RMK A01 T01650018  RH  037%=      5-min Rain = 0
KBY1 160242Z 26008KT 17/02 A2996 RMK A01 T01650018  RH  037%=      5-min Rain = 0
KBY1 160243Z 25010KT 17/02 A2996 RMK A01 T01650018  RH  037%=      5-min Rain = 0
KBY1 160244Z 26011KT 17/02 A2996 RMK A01 T01650018  RH  037%=      5-min Rain = 0
KBY1 160245Z 26009KT 17/02 A2996 RMK A01 T01650017  RH  037%=      5-min Rain = 0
KBY1 160246Z 26011KT 17/02 A2996 RMK A01 T01650017  RH  037%=      5-min Rain = 0
KBY1 160247Z 25010KT 17/02 A2996 RMK A01 T01650017  RH  037%=      5-min Rain = 0
KBY1 160248Z 25010KT 16/02 A2996 RMK A01 T01640017  RH  037%=      5-min Rain = 0
KBY1 160249Z 26011KT 16/02 A2996 RMK A01 T01640017  RH  037%=      5-min Rain = 0
KBY1 160250Z 26011KT 16/02 A2996 RMK A01 T01640017  RH  037%=      5-min Rain = 0
KBY1 160251Z 27011KT 16/02 A2996 RMK A01 T01640017  RH  037%=      5-min Rain = 0
KBY1 160252Z 26011KT 16/02 A2996 RMK A01 T01640017  RH  037%=      5-min Rain = 0
KBY1 160253Z 27015KT 16/02 A2996 RMK A01 T01640017  RH  037%=      5-min Rain = 0
KBY1 160254Z 27014KT 16/02 A2996 RMK A01 T01640016  RH  037%=      5-min Rain = 0
KBY1 160255Z 27013KT 17/02 A2997 RMK A01 T01650016  RH  037%=      5-min Rain = 0
KBY1 160256Z 27015KT 17/02 A2997 RMK A01 T01650016  RH  037%=      5-min Rain = 0
KBY1 160257Z 27014KT 17/02 A2997 RMK A01 T01650015  RH  036%=      5-min Rain = 0
KBY1 160258Z 27012KT 17/02 A2997 RMK A01 T01650015  RH  036%=      5-min Rain = 0
KBY1 160259Z 27016KT 17/02 A2997 RMK A01 T01660015  RH  036%=      5-min Rain = 0
KBY1 160300Z 27016G21KT 17/01 A2997 RMK A01 T01650014  RH  036%=      5-min Rain = 0
KBY1 160301Z 27017KT 17/01 A2997 RMK A01 T01660014  RH  036%=      5-min Rain = 0
KBY1 160302Z 27012G18KT 17/01 A2997 RMK A01 T01660013  RH  036%=      5-min Rain = 0
KBY1 160303Z 27012KT 17/01 A2997 RMK A01 T01660014  RH  036%=      5-min Rain = 0
KBY1 160304Z 27014G19KT 17/01 A2998 RMK A01 T01650014  RH  036%=      5-min Rain = 0
KBY1 160305Z 27016KT 17/01 A2998 RMK A01 T01650013  RH  036%=      5-min Rain = 0
KBY1 160306Z 27014G20KT 17/01 A2998 RMK A01 T01650012  RH  036%=      5-min Rain = 0
KBY1 160307Z 27017KT 17/01 A2998 RMK A01 T01650011  RH  035%=      5-min Rain = 0
KBY1 160308Z 27015G20KT 17/01 A2998 RMK A01 T01660011  RH  035%=      5-min Rain = 0
KBY1 160309Z 27015KT 17/01 A2998 RMK A01 T01660011  RH  035%=      5-min Rain = 0
KBY1 160310Z 27014KT 17/01 A2998 RMK A01 T01660012  RH  035%=      5-min Rain = 0
KBY1 160311Z 27011KT 17/01 A2998 RMK A01 T01650011  RH  035%=      5-min Rain = 0
KBY1 160312Z 26013G19KT 16/01 A2999 RMK A01 T01640011  RH  035%=      5-min Rain = 0
KBY1 160313Z 27016G22KT 16/01 A2999 RMK A01 T01640011  RH  036%=      5-min Rain = 0
KBY1 160314Z 27016KT 16/01 A2999 RMK A01 T01640010  RH  035%=      5-min Rain = 0
KBY1 160315Z 26015KT 16/01 A2999 RMK A01 T01640009  RH  035%=      5-min Rain = 0
KBY1 160316Z 27016G23KT 16/01 A2999 RMK A01 T01640010  RH  035%=      5-min Rain = 0
KBY1 160317Z 27017KT 16/01 A2999 RMK A01 T01640009  RH  035%=      5-min Rain = 0
KBY1 160318Z 27014KT 17/01 A2999 RMK A01 T01650009  RH  035%=      5-min Rain = 0
KBY1 160319Z 27016KT 17/01 A2999 RMK A01 T01650009  RH  035%=      5-min Rain = 0
KBY1 160320Z 27013KT 16/01 A2999 RMK A01 T01640009  RH  035%=      5-min Rain = 0
KBY1 160321Z 27011KT 16/01 A30 RMK A01 T01640009  RH  035%=      5-min Rain = 0
KBY1 160322Z 27013KT 16/01 A30 RMK A01 T01640009  RH  035%=      5-min Rain = 0
KBY1 160323Z 27011G16KT 16/01 A30 RMK A01 T01640009  RH  035%=      5-min Rain = 0
KBY1 160324Z 28012G17KT 16/01 A30 RMK A01 T01630009  RH  035%=      5-min Rain = 0
KBY1 160325Z 27012G17KT 16/01 A30 RMK A01 T01630008  RH  035%=      5-min Rain = 0
KBY1 160326Z 27012KT 16/01 A30 RMK A01 T01630009  RH  035%=      5-min Rain = 0
KBY1 160327Z 27011KT 16/01 A30 RMK A01 T01620008  RH  035%=      5-min Rain = 0
KBY1 160328Z 27013KT 16/01 A30 RMK A01 T01620008  RH  035%=      5-min Rain = 0
KBY1 160329Z 28011KT 16/01 A3001 RMK A01 T01620008  RH  035%=      5-min Rain = 0
KBY1 160330Z 29012G21KT 16/01 A3001 RMK A01 T01620008  RH  035%=      5-min Rain = 0
KBY1 160331Z 29012G19KT 16/01 A3001 RMK A01 T01620008  RH  035%=      5-min Rain = 0
KBY1 160332Z 27010KT 16/01 A3001 RMK A01 T01620008  RH  035%=      5-min Rain = 0
KBY1 160333Z 28010G15KT 16/01 A3001 RMK A01 T01620007  RH  035%=      5-min Rain = 0
KBY1 160334Z 29013KT 16/01 A3001 RMK A01 T01620007  RH  035%=      5-min Rain = 0
KBY1 160335Z 27011KT 16/01 A3001 RMK A01 T01620007  RH  035%=      5-min Rain = 0
KBY1 160336Z 27009KT 16/01 A3001 RMK A01 T01610007  RH  035%=      5-min Rain = 0
KBY1 160337Z 27010KT 16/01 A3001 RMK A01 T01610007  RH  035%=      5-min Rain = 0
KBY1 160338Z 27009KT 16/01 A3001 RMK A01 T01600007  RH  035%=      5-min Rain = 0
KBY1 160339Z 28011G16KT 16/01 A3001 RMK A01 T01600007  RH  035%=      5-min Rain = 0
KBY1 160340Z 28009KT 16/01 A3001 RMK A01 T01600007  RH  035%=      5-min Rain = 0
KBY1 160341Z 28011G16KT 16/01 A3001 RMK A01 T01600007  RH  035%=      5-min Rain = 0
KBY1 160342Z 28012G17KT 16/01 A3001 RMK A01 T01590007  RH  035%=      5-min Rain = 0
KBY1 160343Z 28012G18KT 16/01 A3001 RMK A01 T01600007  RH  036%=      5-min Rain = 0
KBY1 160344Z 28011KT 16/01 A3001 RMK A01 T01600007  RH  035%=      5-min Rain = 0
KBY1 160345Z 28011G17KT 16/01 A3001 RMK A01 T01600007  RH  035%=      5-min Rain = 0
KBY1 160346Z 28011G16KT 16/01 A3001 RMK A01 T01590006  RH  035%=      5-min Rain = 0
KBY1 160347Z 29011KT 16/01 A3001 RMK A01 T01590006  RH  035%=      5-min Rain = 0
KBY1 160348Z 28011G17KT 16/01 A3001 RMK A01 T01590007  RH  035%=      5-min Rain = 0
KBY1 160349Z 28010G16KT 16/01 A3001 RMK A01 T01590006  RH  035%=      5-min Rain = 0
KBY1 160350Z 28011KT 16/01 A3001 RMK A01 T01580006  RH  035%=      5-min Rain = 0
KBY1 160351Z 29009KT 16/01 A3001 RMK A01 T01580006  RH  036%=      5-min Rain = 0
KBY1 160352Z 28008KT 16/01 A3002 RMK A01 T01580006  RH  036%=      5-min Rain = 0
KBY1 160353Z 28009KT 16/01 A3002 RMK A01 T01570006  RH  036%=      5-min Rain = 0
KBY1 160354Z 27010KT 16/01 A3002 RMK A01 T01580006  RH  036%=      5-min Rain = 0
KBY1 160355Z 28008KT 16/01 A3002 RMK A01 T01570006  RH  036%=      5-min Rain = 0
KBY1 160356Z 28007KT 16/01 A3002 RMK A01 T01570006  RH  036%=      5-min Rain = 0
KBY1 160357Z 28008KT 16/01 A3002 RMK A01 T01560006  RH  036%=      5-min Rain = 0
KBY1 160358Z 28008KT 16/01 A3003 RMK A01 T01560006  RH  036%=      5-min Rain = 0
KBY1 160359Z 28008KT 16/01 A3003 RMK A01 T01560006  RH  036%=      5-min Rain = 0
KBY1 160400Z 27009KT 16/01 A3003 RMK A01 T01550005  RH  036%=      5-min Rain = 0
KBY1 160401Z 28008KT 16/01 A3003 RMK A01 T01550005  RH  036%=      5-min Rain = 0
KBY1 160402Z 28010KT 16/01 A3003 RMK A01 T01550005  RH  036%=      5-min Rain = 0
KBY1 160403Z 28008KT 15/01 A3003 RMK A01 T01540005  RH  036%=      5-min Rain = 0
KBY1 160404Z 29010KT 15/00 A3003 RMK A01 T01540004  RH  036%=      5-min Rain = 0
KBY1 160405Z 29008KT 15/00 A3003 RMK A01 T01540004  RH  036%=      5-min Rain = 0
KBY1 160406Z 29011G16KT 16/00 A3004 RMK A01 T01550004  RH  036%=      5-min Rain = 0
KBY1 160407Z 29011KT 16/00 A3004 RMK A01 T01550003  RH  036%=      5-min Rain = 0
KBY1 160408Z 29009KT 16/00 A3004 RMK A01 T01560003  RH  035%=      5-min Rain = 0
KBY1 160409Z 29010KT 16/00 A3004 RMK A01 T01550003  RH  035%=      5-min Rain = 0
KBY1 160410Z 29010G15KT 16/00 A3004 RMK A01 T01560003  RH  035%=      5-min Rain = 0
KBY1 160411Z 29012KT 16/00 A3004 RMK A01 T01550003  RH  035%=      5-min Rain = 0
KBY1 160412Z 29010G15KT 16/00 A3004 RMK A01 T01550003  RH  035%=      5-min Rain = 0
KBY1 160413Z 29012KT 16/00 A3004 RMK A01 T01560003  RH  035%=      5-min Rain = 0
KBY1 160414Z 28009KT 16/00 A3004 RMK A01 T01550002  RH  035%=      5-min Rain = 0
KBY1 160415Z 28011KT 16/00 A3004 RMK A01 T01550002  RH  035%=      5-min Rain = 0
KBY1 160416Z 28010G15KT 15/00 A3004 RMK A01 T01540002  RH  035%=      5-min Rain = 0
KBY1 160417Z 27009KT 15/00 A3004 RMK A01 T01540002  RH  035%=      5-min Rain = 0
KBY1 160418Z 28009KT 15/00 A3005 RMK A01 T01540002  RH  036%=      5-min Rain = 0
KBY1 160419Z 27011KT 15/00 A3005 RMK A01 T01530002  RH  036%=      5-min Rain = 0
KBY1 160420Z 27012KT 15/00 A3005 RMK A01 T01530002  RH  036%=      5-min Rain = 0
KBY1 160421Z 27012KT 15/00 A3005 RMK A01 T01530002  RH  036%=      5-min Rain = 0
KBY1 160422Z 28012KT 15/00 A3005 RMK A01 T01530001  RH  036%=      5-min Rain = 0
KBY1 160423Z 28009KT 15/00 A3005 RMK A01 T01530001  RH  035%=      5-min Rain = 0
KBY1 160424Z 28011KT 15/00 A3005 RMK A01 T01530001  RH  035%=      5-min Rain = 0
KBY1 160425Z 27009KT 15/00 A3005 RMK A01 T01530001  RH  035%=      5-min Rain = 0
KBY1 160426Z 28008KT 15/00 A3005 RMK A01 T01530001  RH  035%=      5-min Rain = 0
KBY1 160427Z 29009KT 15/00 A3005 RMK A01 T01530001  RH  035%=      5-min Rain = 0
KBY1 160428Z 28008KT 15/00 A3005 RMK A01 T01520000  RH  036%=      5-min Rain = 0
KBY1 160429Z 28009KT 15/00 A3006 RMK A01 T01520000  RH  036%=      5-min Rain = 0
KBY1 160430Z 28010KT 15/00 A3006 RMK A01 T01520000  RH  035%=      5-min Rain = 0
KBY1 160431Z 27009KT 15/00 A3006 RMK A01 T015200-0  RH  035%=      5-min Rain = 0
KBY1 160432Z 29010KT 15/00 A3006 RMK A01 T01520000  RH  035%=      5-min Rain = 0
KBY1 160433Z 29009KT 15/00 A3006 RMK A01 T01520000  RH  035%=      5-min Rain = 0
KBY1 160434Z 30010KT 15/00 A3007 RMK A01 T01520000  RH  035%=      5-min Rain = 0
KBY1 160435Z 31010KT 15/00 A3007 RMK A01 T015200-0  RH  035%=      5-min Rain = 0
KBY1 160436Z 34012KT 15/M00 A3008 RMK A01 T01511001  RH  035%=      5-min Rain = 0
KBY1 160437Z 01016G22KT 15/M00 A3008 RMK A01 T01501003  RH  035%=      5-min Rain = 0
KBY1 160438Z 02019KT 14/M01 A3008 RMK A01 T01421014  RH  034%=      5-min Rain = 0
KBY1 160439Z 02016G22KT 13/M02 A3008 RMK A01 T01331017  RH  035%=      5-min Rain = 0
KBY1 160440Z 02018KT 13/M02 A3008 RMK A01 T01281016  RH  037%=      5-min Rain = 0
KBY1 160441Z 02015KT 12/M02 A3008 RMK A01 T01241015  RH  038%=      5-min Rain = 0
KBY1 160442Z 02017G23KT 12/M02 A3009 RMK A01 T01221015  RH  039%=      5-min Rain = 0
KBY1 160443Z 03016KT 12/M01 A3009 RMK A01 T01201014  RH  039%=      5-min Rain = 0
KBY1 160444Z 02014KT 12/M01 A3009 RMK A01 T01191014  RH  040%=      5-min Rain = 0
KBY1 160445Z 02012KT 12/M01 A3009 RMK A01 T01181014  RH  040%=      5-min Rain = 0
KBY1 160446Z 03014KT 12/M01 A3009 RMK A01 T01161014  RH  040%=      5-min Rain = 0
KBY1 160447Z 02015KT 12/M01 A3009 RMK A01 T01151014  RH  041%=      5-min Rain = 0
KBY1 160448Z 03015KT 11/M01 A301 RMK A01 T01141014  RH  041%=      5-min Rain = 0
KBY1 160449Z 03019G24KT 11/M01 A301 RMK A01 T01141013  RH  041%=      5-min Rain = 0
KBY1 160450Z 03020G25KT 11/M01 A301 RMK A01 T01141014  RH  041%=      5-min Rain = 0
KBY1 160451Z 03021KT 11/M01 A301 RMK A01 T01131014  RH  041%=      5-min Rain = 0
KBY1 160452Z 03018KT 11/M01 A301 RMK A01 T01131014  RH  041%=      5-min Rain = 0
KBY1 160453Z 03019G25KT 11/M01 A3011 RMK A01 T01121014  RH  041%=      5-min Rain = 0
KBY1 160454Z 03017KT 11/M01 A3011 RMK A01 T01121014  RH  041%=      5-min Rain = 0
KBY1 160455Z 03017G23KT 11/M01 A3011 RMK A01 T01121014  RH  042%=      5-min Rain = 0
KBY1 160456Z 03020G25KT 11/M01 A3011 RMK A01 T01111014  RH  042%=      5-min Rain = 0
KBY1 160457Z 03017KT 11/M02 A3011 RMK A01 T01111015  RH  042%=      5-min Rain = 0
KBY1 160458Z 03017KT 11/M02 A3012 RMK A01 T01111015  RH  042%=      5-min Rain = 0
KBY1 160459Z 03018G23KT 11/M02 A3012 RMK A01 T01101015  RH  042%=      5-min Rain = 0
KBY1 160500Z 03019KT 11/M02 A3012 RMK A01 T01101015  RH  042%=      5-min Rain = 0
KBY1 160501Z 04016G21KT 11/M02 A3012 RMK A01 T01101016  RH  042%=      5-min Rain = 0
KBY1 160502Z 03018KT 11/M02 A3012 RMK A01 T01101016  RH  042%=      5-min Rain = 0
KBY1 160503Z 03017KT 11/M02 A3012 RMK A01 T01091016  RH  042%=      5-min Rain = 0
KBY1 160504Z 03017KT 11/M02 A3012 RMK A01 T01091016  RH  042%=      5-min Rain = 0
KBY1 160505Z 03016G22KT 11/M02 A3012 RMK A01 T01091017  RH  041%=      5-min Rain = 0
KBY1 160506Z 02014G22KT 11/M02 A3012 RMK A01 T01081019  RH  041%=      5-min Rain = 0
KBY1 160507Z 04020G25KT 11/M02 A3012 RMK A01 T01071021  RH  041%=      5-min Rain = 0
KBY1 160508Z 03020G26KT 11/M02 A3012 RMK A01 T01071024  RH  040%=      5-min Rain = 0
KBY1 160509Z 03023G28KT 11/M03 A3012 RMK A01 T01071025  RH  039%=      5-min Rain = 0
KBY1 160510Z 03018G23KT 11/M03 A3012 RMK A01 T01071026  RH  039%=      5-min Rain = 0
KBY1 160511Z 03021G30KT 11/M03 A3012 RMK A01 T01061028  RH  039%=      5-min Rain = 0
KBY1 160512Z 03024KT 11/M03 A3012 RMK A01 T01061029  RH  039%=      5-min Rain = 0
KBY1 160513Z 03021G26KT 11/M03 A3012 RMK A01 T01061030  RH  038%=      5-min Rain = 0
KBY1 160514Z 03020KT 11/M03 A3012 RMK A01 T01051031  RH  038%=      5-min Rain = 0
KBY1 160515Z 03019G25KT 11/M03 A3013 RMK A01 T01051032  RH  038%=      5-min Rain = 0
KBY1 160516Z 03023G30KT 11/M03 A3013 RMK A01 T01051033  RH  038%=      5-min Rain = 0
KBY1 160517Z 03021KT 11/M03 A3013 RMK A01 T01051033  RH  038%=      5-min Rain = 0
KBY1 160518Z 03019KT 10/M03 A3013 RMK A01 T01041034  RH  038%=      5-min Rain = 0
KBY1 160519Z 03019G24KT 10/M03 A3014 RMK A01 T01041034  RH  038%=      5-min Rain = 0
KBY1 160520Z 03016G21KT 10/M04 A3014 RMK A01 T01041035  RH  037%=      5-min Rain = 0
KBY1 160521Z 03019G26KT 10/M04 A3014 RMK A01 T01041035  RH  037%=      5-min Rain = 0
KBY1 160522Z 03020G25KT 10/M04 A3014 RMK A01 T01031039  RH  037%=      5-min Rain = 0
KBY1 160523Z 03017G24KT 10/M04 A3014 RMK A01 T01031040  RH  036%=      5-min Rain = 0
KBY1 160524Z 03018G23KT 10/M04 A3014 RMK A01 T01031039  RH  037%=      5-min Rain = 0
KBY1 160525Z 03018KT 10/M04 A3014 RMK A01 T01031038  RH  037%=      5-min Rain = 0
KBY1 160526Z 03019KT 10/M04 A3014 RMK A01 T01021037  RH  037%=      5-min Rain = 0
KBY1 160527Z 03019KT 10/M04 A3014 RMK A01 T01021036  RH  038%=      5-min Rain = 0
KBY1 160528Z 03018KT 10/M04 A3014 RMK A01 T01021036  RH  038%=      5-min Rain = 0
KBY1 160529Z 03017KT 10/M04 A3014 RMK A01 T01011036  RH  038%=      5-min Rain = 0
KBY1 160530Z 03015KT 10/M04 A3015 RMK A01 T01011036  RH  038%=      5-min Rain = 0
KBY1 160531Z 03017G24KT 10/M04 A3015 RMK A01 T01011036  RH  038%=      5-min Rain = 0
KBY1 160532Z 03019KT 10/M04 A3015 RMK A01 T01001037  RH  038%=      5-min Rain = 0
KBY1 160533Z 03017G22KT 10/M04 A3015 RMK A01 T01011037  RH  038%=      5-min Rain = 0
KBY1 160534Z 03016G21KT 10/M04 A3015 RMK A01 T01001037  RH  038%=      5-min Rain = 0
KBY1 160535Z 03016KT 10/M04 A3015 RMK A01 T01001038  RH  038%=      5-min Rain = 0
KBY1 160536Z 03013KT 10/M04 A3015 RMK A01 T00991038  RH  038%=      5-min Rain = 0
KBY1 160537Z 03013G18KT 10/M04 A3015 RMK A01 T00991039  RH  038%=      5-min Rain = 0
KBY1 160538Z 03015KT 10/M04 A3015 RMK A01 T00981039  RH  038%=      5-min Rain = 0
KBY1 160539Z 03015KT 10/M04 A3015 RMK A01 T00981040  RH  037%=      5-min Rain = 0
KBY1 160540Z 03019G25KT 10/M04 A3015 RMK A01 T00981041  RH  037%=      5-min Rain = 0
KBY1 160541Z 03015G20KT 10/M04 A3015 RMK A01 T00981041  RH  037%=      5-min Rain = 0
KBY1 160542Z 04014KT 10/M04 A3015 RMK A01 T00981041  RH  037%=      5-min Rain = 0
KBY1 160543Z 04014G19KT 10/M04 A3015 RMK A01 T00971041  RH  037%=      5-min Rain = 0
KBY1 160544Z 03015G21KT 10/M04 A3015 RMK A01 T00971041  RH  037%=      5-min Rain = 0
KBY1 160545Z 03018KT 10/M04 A3016 RMK A01 T00971042  RH  037%=      5-min Rain = 0
KBY1 160546Z 03018KT 10/M04 A3016 RMK A01 T00971042  RH  037%=      5-min Rain = 0
KBY1 160547Z 04015G21KT 10/M04 A3016 RMK A01 T00971042  RH  037%=      5-min Rain = 0
KBY1 160548Z 03017KT 10/M04 A3016 RMK A01 T00971042  RH  037%=      5-min Rain = 0
KBY1 160549Z 03016KT 10/M04 A3016 RMK A01 T00971043  RH  037%=      5-min Rain = 0
KBY1 160550Z 03016KT 10/M04 A3016 RMK A01 T00971042  RH  037%=      5-min Rain = 0
KBY1 160551Z 03014KT 10/M04 A3016 RMK A01 T00961043  RH  037%=      5-min Rain = 0
KBY1 160552Z 03015G21KT 10/M04 A3016 RMK A01 T00961043  RH  037%=      5-min Rain = 0
KBY1 160553Z 03018KT 10/M04 A3016 RMK A01 T00961044  RH  037%=      5-min Rain = 0
KBY1 160554Z 03017G22KT 10/M05 A3016 RMK A01 T00951045  RH  037%=      5-min Rain = 0
KBY1 160555Z 03018KT 10/M05 A3016 RMK A01 T00951046  RH  036%=      5-min Rain = 0
KBY1 160556Z 03018KT 10/M05 A3016 RMK A01 T00951047  RH  036%=      5-min Rain = 0
KBY1 160557Z 03016KT 10/M05 A3016 RMK A01 T00951047  RH  036%=      5-min Rain = 0
KBY1 160558Z 04016KT 10/M05 A3016 RMK A01 T00951048  RH  036%=      5-min Rain = 0
KBY1 160559Z 04018G24KT 10/M05 A3016 RMK A01 T00951048  RH  036%=      5-min Rain = 0

Page generated in 0.1413 seconds.